<?xml version="1.0" encoding="UTF-8" standalone="no" ?>
<gpx xmlns="http://www.topografix.com/GPX/1/1" xmlns:xsi="http://www.w3.org/2001/XMLSchema-instance" xsi:schemaLocation="http://www.topografix.com/GPX/1/1 http://www.topografix.com/GPX/1/1/gpx.xsd" version="1.1" creator="VisuGPX - https://www.visugpx.com">
  <metadata>
    <name> VEIGY GENEVE ARVE VEIGY Boucle HW</name>
    <desc><![CDATA[ VEIGY GENEVE ARVE VEIGY Boicle HW]]></desc>
  </metadata>
  <trk>
    <name><![CDATA[CURRENT TRACK- 08 OCT 2020 VEIGY GENEVE ARVE]]></name>
    <extensions>
      <line xmlns="http://www.topografix.com/GPX/gpx_style/0/2">
        <color>0000FF</color>
        <width>4</width>
      </line>
    </extensions>
    <trkseg>
      <trkpt lat="46.2684" lon="6.25622">
        <ele>472.87</ele>
        <time>2020-10-08T09:25:28Z</time>
      </trkpt>
      <trkpt lat="46.26823" lon="6.25556">
        <ele>472.87</ele>
        <time>2020-10-08T09:25:55Z</time>
      </trkpt>
      <trkpt lat="46.26773" lon="6.25508">
        <ele>472.87</ele>
        <time>2020-10-08T09:26:09Z</time>
      </trkpt>
      <trkpt lat="46.26736" lon="6.25438">
        <ele>472.87</ele>
        <time>2020-10-08T09:26:24Z</time>
      </trkpt>
      <trkpt lat="46.26685" lon="6.25388">
        <ele>472.87</ele>
        <time>2020-10-08T09:26:39Z</time>
      </trkpt>
      <trkpt lat="46.26631" lon="6.25342">
        <ele>476.03</ele>
        <time>2020-10-08T09:26:53Z</time>
      </trkpt>
      <trkpt lat="46.26582" lon="6.25297">
        <ele>476.4</ele>
        <time>2020-10-08T09:27:05Z</time>
      </trkpt>
      <trkpt lat="46.2653" lon="6.2526">
        <ele>476.03</ele>
        <time>2020-10-08T09:27:18Z</time>
      </trkpt>
      <trkpt lat="46.26506" lon="6.25258">
        <ele>432.9</ele>
        <time>2020-10-08T09:39:47Z</time>
      </trkpt>
      <trkpt lat="46.26474" lon="6.25247">
        <ele>476.43</ele>
        <time>2020-10-08T09:40:04Z</time>
      </trkpt>
      <trkpt lat="46.26425" lon="6.25203">
        <ele>476.43</ele>
        <time>2020-10-08T09:40:16Z</time>
      </trkpt>
      <trkpt lat="46.26391" lon="6.25134">
        <ele>476.43</ele>
        <time>2020-10-08T09:40:28Z</time>
      </trkpt>
      <trkpt lat="46.2635" lon="6.25071">
        <ele>476.43</ele>
        <time>2020-10-08T09:40:40Z</time>
      </trkpt>
      <trkpt lat="46.26303" lon="6.25019">
        <ele>476.43</ele>
        <time>2020-10-08T09:40:54Z</time>
      </trkpt>
      <trkpt lat="46.26255" lon="6.24967">
        <ele>476.43</ele>
        <time>2020-10-08T09:41:06Z</time>
      </trkpt>
      <trkpt lat="46.26196" lon="6.24966">
        <ele>476.43</ele>
        <time>2020-10-08T09:42:07Z</time>
      </trkpt>
      <trkpt lat="46.26141" lon="6.24935">
        <ele>476.43</ele>
        <time>2020-10-08T09:42:21Z</time>
      </trkpt>
      <trkpt lat="46.26085" lon="6.2491">
        <ele>476.43</ele>
        <time>2020-10-08T09:42:34Z</time>
      </trkpt>
      <trkpt lat="46.26005" lon="6.24857">
        <ele>476.43</ele>
        <time>2020-10-08T09:42:50Z</time>
      </trkpt>
      <trkpt lat="46.25941" lon="6.24814">
        <ele>476.43</ele>
        <time>2020-10-08T09:43:02Z</time>
      </trkpt>
      <trkpt lat="46.25886" lon="6.24771">
        <ele>476.43</ele>
        <time>2020-10-08T09:43:14Z</time>
      </trkpt>
      <trkpt lat="46.25835" lon="6.24731">
        <ele>476.43</ele>
        <time>2020-10-08T09:43:27Z</time>
      </trkpt>
      <trkpt lat="46.25783" lon="6.24692">
        <ele>476.43</ele>
        <time>2020-10-08T09:43:41Z</time>
      </trkpt>
      <trkpt lat="46.25732" lon="6.24653">
        <ele>476.43</ele>
        <time>2020-10-08T09:43:55Z</time>
      </trkpt>
      <trkpt lat="46.25681" lon="6.24607">
        <ele>483.51</ele>
        <time>2020-10-08T09:44:11Z</time>
      </trkpt>
      <trkpt lat="46.25634" lon="6.24551">
        <ele>481.65</ele>
        <time>2020-10-08T09:44:21Z</time>
      </trkpt>
      <trkpt lat="46.25589" lon="6.2449">
        <ele>481.5</ele>
        <time>2020-10-08T09:44:32Z</time>
      </trkpt>
      <trkpt lat="46.25536" lon="6.24439">
        <ele>481.19</ele>
        <time>2020-10-08T09:44:43Z</time>
      </trkpt>
      <trkpt lat="46.25485" lon="6.24394">
        <ele>481.04</ele>
        <time>2020-10-08T09:44:55Z</time>
      </trkpt>
      <trkpt lat="46.25429" lon="6.24349">
        <ele>481.67</ele>
        <time>2020-10-08T09:45:07Z</time>
      </trkpt>
      <trkpt lat="46.25373" lon="6.243">
        <ele>481.94</ele>
        <time>2020-10-08T09:45:19Z</time>
      </trkpt>
      <trkpt lat="46.2532" lon="6.24256">
        <ele>481.94</ele>
        <time>2020-10-08T09:45:40Z</time>
      </trkpt>
      <trkpt lat="46.25265" lon="6.24202">
        <ele>481.94</ele>
        <time>2020-10-08T09:45:55Z</time>
      </trkpt>
      <trkpt lat="46.25208" lon="6.24146">
        <ele>481.94</ele>
        <time>2020-10-08T09:46:07Z</time>
      </trkpt>
      <trkpt lat="46.25157" lon="6.24094">
        <ele>481.94</ele>
        <time>2020-10-08T09:46:17Z</time>
      </trkpt>
      <trkpt lat="46.25109" lon="6.24049">
        <ele>481.94</ele>
        <time>2020-10-08T09:46:26Z</time>
      </trkpt>
      <trkpt lat="46.25052" lon="6.23993">
        <ele>481.94</ele>
        <time>2020-10-08T09:46:38Z</time>
      </trkpt>
      <trkpt lat="46.25" lon="6.23932">
        <ele>481.94</ele>
        <time>2020-10-08T09:46:50Z</time>
      </trkpt>
      <trkpt lat="46.24957" lon="6.23857">
        <ele>481.94</ele>
        <time>2020-10-08T09:47:02Z</time>
      </trkpt>
      <trkpt lat="46.24916" lon="6.23776">
        <ele>479.16</ele>
        <time>2020-10-08T09:47:14Z</time>
      </trkpt>
      <trkpt lat="46.24868" lon="6.23683">
        <ele>478.94</ele>
        <time>2020-10-08T09:47:34Z</time>
      </trkpt>
      <trkpt lat="46.24843" lon="6.23645">
        <ele>479.69</ele>
        <time>2020-10-08T09:48:10Z</time>
      </trkpt>
      <trkpt lat="46.24796" lon="6.23589">
        <ele>479.72</ele>
        <time>2020-10-08T09:48:24Z</time>
      </trkpt>
      <trkpt lat="46.24743" lon="6.23541">
        <ele>479.72</ele>
        <time>2020-10-08T09:48:38Z</time>
      </trkpt>
      <trkpt lat="46.24696" lon="6.23495">
        <ele>479.72</ele>
        <time>2020-10-08T09:48:52Z</time>
      </trkpt>
      <trkpt lat="46.24671" lon="6.23418">
        <ele>479.72</ele>
        <time>2020-10-08T09:49:09Z</time>
      </trkpt>
      <trkpt lat="46.24632" lon="6.23346">
        <ele>484.03</ele>
        <time>2020-10-08T09:49:23Z</time>
      </trkpt>
      <trkpt lat="46.24602" lon="6.23275">
        <ele>483.18</ele>
        <time>2020-10-08T09:49:32Z</time>
      </trkpt>
      <trkpt lat="46.24591" lon="6.23187">
        <ele>481.93</ele>
        <time>2020-10-08T09:49:43Z</time>
      </trkpt>
      <trkpt lat="46.24563" lon="6.23113">
        <ele>482.27</ele>
        <time>2020-10-08T09:49:57Z</time>
      </trkpt>
      <trkpt lat="46.24524" lon="6.23034">
        <ele>482.62</ele>
        <time>2020-10-08T09:50:09Z</time>
      </trkpt>
      <trkpt lat="46.24486" lon="6.22963">
        <ele>481.91</ele>
        <time>2020-10-08T09:50:21Z</time>
      </trkpt>
      <trkpt lat="46.24451" lon="6.22893">
        <ele>481.15</ele>
        <time>2020-10-08T09:50:33Z</time>
      </trkpt>
      <trkpt lat="46.24425" lon="6.22813">
        <ele>481.19</ele>
        <time>2020-10-08T09:50:45Z</time>
      </trkpt>
      <trkpt lat="46.24403" lon="6.22728">
        <ele>481.37</ele>
        <time>2020-10-08T09:50:57Z</time>
      </trkpt>
      <trkpt lat="46.2437" lon="6.22656">
        <ele>480.7</ele>
        <time>2020-10-08T09:51:06Z</time>
      </trkpt>
      <trkpt lat="46.2433" lon="6.22591">
        <ele>478.58</ele>
        <time>2020-10-08T09:51:24Z</time>
      </trkpt>
      <trkpt lat="46.2428" lon="6.22536">
        <ele>478.77</ele>
        <time>2020-10-08T09:51:36Z</time>
      </trkpt>
      <trkpt lat="46.24234" lon="6.22485">
        <ele>478.75</ele>
        <time>2020-10-08T09:51:45Z</time>
      </trkpt>
      <trkpt lat="46.2418" lon="6.22439">
        <ele>478.03</ele>
        <time>2020-10-08T09:51:57Z</time>
      </trkpt>
      <trkpt lat="46.24119" lon="6.22406">
        <ele>477.06</ele>
        <time>2020-10-08T09:52:08Z</time>
      </trkpt>
      <trkpt lat="46.24044" lon="6.22375">
        <ele>476.29</ele>
        <time>2020-10-08T09:52:20Z</time>
      </trkpt>
      <trkpt lat="46.23984" lon="6.22338">
        <ele>475.48</ele>
        <time>2020-10-08T09:52:32Z</time>
      </trkpt>
      <trkpt lat="46.23942" lon="6.2228">
        <ele>475.34</ele>
        <time>2020-10-08T09:52:45Z</time>
      </trkpt>
      <trkpt lat="46.23915" lon="6.222">
        <ele>476.98</ele>
        <time>2020-10-08T09:53:00Z</time>
      </trkpt>
      <trkpt lat="46.23897" lon="6.22122">
        <ele>479.66</ele>
        <time>2020-10-08T09:53:15Z</time>
      </trkpt>
      <trkpt lat="46.23878" lon="6.22046">
        <ele>482.01</ele>
        <time>2020-10-08T09:53:30Z</time>
      </trkpt>
      <trkpt lat="46.2386" lon="6.21966">
        <ele>484.55</ele>
        <time>2020-10-08T09:53:45Z</time>
      </trkpt>
      <trkpt lat="46.23839" lon="6.21885">
        <ele>487.98</ele>
        <time>2020-10-08T09:54:02Z</time>
      </trkpt>
      <trkpt lat="46.23799" lon="6.21824">
        <ele>493.68</ele>
        <time>2020-10-08T09:54:22Z</time>
      </trkpt>
      <trkpt lat="46.23746" lon="6.21794">
        <ele>498.23</ele>
        <time>2020-10-08T09:54:42Z</time>
      </trkpt>
      <trkpt lat="46.23689" lon="6.21764">
        <ele>502.82</ele>
        <time>2020-10-08T09:55:03Z</time>
      </trkpt>
      <trkpt lat="46.23636" lon="6.21724">
        <ele>507.58</ele>
        <time>2020-10-08T09:55:24Z</time>
      </trkpt>
      <trkpt lat="46.23588" lon="6.21682">
        <ele>510.21</ele>
        <time>2020-10-08T09:55:43Z</time>
      </trkpt>
      <trkpt lat="46.23538" lon="6.21636">
        <ele>512.04</ele>
        <time>2020-10-08T09:56:03Z</time>
      </trkpt>
      <trkpt lat="46.23489" lon="6.21615">
        <ele>513.25</ele>
        <time>2020-10-08T09:56:24Z</time>
      </trkpt>
      <trkpt lat="46.23548" lon="6.21647">
        <ele>513.01</ele>
        <time>2020-10-08T09:56:41Z</time>
      </trkpt>
      <trkpt lat="46.23571" lon="6.21599">
        <ele>512.63</ele>
        <time>2020-10-08T09:57:00Z</time>
      </trkpt>
      <trkpt lat="46.2359" lon="6.21509">
        <ele>512.65</ele>
        <time>2020-10-08T09:57:11Z</time>
      </trkpt>
      <trkpt lat="46.23608" lon="6.21428">
        <ele>511.03</ele>
        <time>2020-10-08T09:57:20Z</time>
      </trkpt>
      <trkpt lat="46.23648" lon="6.21351">
        <ele>509.92</ele>
        <time>2020-10-08T09:57:32Z</time>
      </trkpt>
      <trkpt lat="46.2363" lon="6.21281">
        <ele>509.58</ele>
        <time>2020-10-08T09:57:46Z</time>
      </trkpt>
      <trkpt lat="46.23583" lon="6.21182">
        <ele>510.37</ele>
        <time>2020-10-08T09:58:03Z</time>
      </trkpt>
      <trkpt lat="46.23556" lon="6.21107">
        <ele>510.79</ele>
        <time>2020-10-08T09:58:16Z</time>
      </trkpt>
      <trkpt lat="46.23516" lon="6.2104">
        <ele>512.87</ele>
        <time>2020-10-08T09:58:32Z</time>
      </trkpt>
      <trkpt lat="46.23466" lon="6.20988">
        <ele>513.96</ele>
        <time>2020-10-08T09:58:45Z</time>
      </trkpt>
      <trkpt lat="46.2345" lon="6.20931">
        <ele>514.29</ele>
        <time>2020-10-08T09:59:00Z</time>
      </trkpt>
      <trkpt lat="46.23492" lon="6.20861">
        <ele>515.66</ele>
        <time>2020-10-08T09:59:15Z</time>
      </trkpt>
      <trkpt lat="46.23546" lon="6.2081">
        <ele>517.46</ele>
        <time>2020-10-08T09:59:30Z</time>
      </trkpt>
      <trkpt lat="46.23565" lon="6.20734">
        <ele>517.98</ele>
        <time>2020-10-08T09:59:47Z</time>
      </trkpt>
      <trkpt lat="46.23559" lon="6.20641">
        <ele>516.34</ele>
        <time>2020-10-08T10:00:00Z</time>
      </trkpt>
      <trkpt lat="46.23556" lon="6.20549">
        <ele>514.14</ele>
        <time>2020-10-08T10:00:10Z</time>
      </trkpt>
      <trkpt lat="46.23527" lon="6.20464">
        <ele>510.68</ele>
        <time>2020-10-08T10:00:21Z</time>
      </trkpt>
      <trkpt lat="46.23491" lon="6.20397">
        <ele>506.73</ele>
        <time>2020-10-08T10:01:03Z</time>
      </trkpt>
      <trkpt lat="46.23439" lon="6.2034">
        <ele>507.66</ele>
        <time>2020-10-08T10:01:15Z</time>
      </trkpt>
      <trkpt lat="46.23389" lon="6.20286">
        <ele>506.57</ele>
        <time>2020-10-08T10:01:27Z</time>
      </trkpt>
      <trkpt lat="46.23342" lon="6.20231">
        <ele>505.57</ele>
        <time>2020-10-08T10:01:39Z</time>
      </trkpt>
      <trkpt lat="46.23296" lon="6.20178">
        <ele>505.12</ele>
        <time>2020-10-08T10:01:51Z</time>
      </trkpt>
      <trkpt lat="46.23245" lon="6.20117">
        <ele>505.3</ele>
        <time>2020-10-08T10:02:03Z</time>
      </trkpt>
      <trkpt lat="46.23198" lon="6.20065">
        <ele>507.21</ele>
        <time>2020-10-08T10:02:17Z</time>
      </trkpt>
      <trkpt lat="46.2315" lon="6.20008">
        <ele>509.66</ele>
        <time>2020-10-08T10:02:32Z</time>
      </trkpt>
      <trkpt lat="46.23104" lon="6.19954">
        <ele>512.07</ele>
        <time>2020-10-08T10:02:47Z</time>
      </trkpt>
      <trkpt lat="46.23059" lon="6.19901">
        <ele>514.69</ele>
        <time>2020-10-08T10:03:02Z</time>
      </trkpt>
      <trkpt lat="46.23011" lon="6.19846">
        <ele>517.57</ele>
        <time>2020-10-08T10:03:19Z</time>
      </trkpt>
      <trkpt lat="46.22947" lon="6.1977">
        <ele>520.62</ele>
        <time>2020-10-08T10:03:43Z</time>
      </trkpt>
      <trkpt lat="46.229" lon="6.19714">
        <ele>523</ele>
        <time>2020-10-08T10:04:00Z</time>
      </trkpt>
      <trkpt lat="46.22853" lon="6.19659">
        <ele>525.42</ele>
        <time>2020-10-08T10:04:18Z</time>
      </trkpt>
      <trkpt lat="46.22803" lon="6.19603">
        <ele>527.83</ele>
        <time>2020-10-08T10:04:33Z</time>
      </trkpt>
      <trkpt lat="46.22753" lon="6.19544">
        <ele>529.68</ele>
        <time>2020-10-08T10:04:49Z</time>
      </trkpt>
      <trkpt lat="46.22707" lon="6.19489">
        <ele>530.99</ele>
        <time>2020-10-08T10:05:04Z</time>
      </trkpt>
      <trkpt lat="46.22659" lon="6.19434">
        <ele>532.26</ele>
        <time>2020-10-08T10:05:18Z</time>
      </trkpt>
      <trkpt lat="46.2261" lon="6.19375">
        <ele>533.03</ele>
        <time>2020-10-08T10:05:29Z</time>
      </trkpt>
      <trkpt lat="46.22564" lon="6.19323">
        <ele>533.45</ele>
        <time>2020-10-08T10:05:41Z</time>
      </trkpt>
      <trkpt lat="46.22513" lon="6.19263">
        <ele>534.23</ele>
        <time>2020-10-08T10:05:53Z</time>
      </trkpt>
      <trkpt lat="46.22466" lon="6.19207">
        <ele>534.98</ele>
        <time>2020-10-08T10:06:08Z</time>
      </trkpt>
      <trkpt lat="46.22418" lon="6.19154">
        <ele>535.45</ele>
        <time>2020-10-08T10:06:22Z</time>
      </trkpt>
      <trkpt lat="46.22366" lon="6.19098">
        <ele>536.16</ele>
        <time>2020-10-08T10:06:33Z</time>
      </trkpt>
      <trkpt lat="46.22314" lon="6.19042">
        <ele>536.28</ele>
        <time>2020-10-08T10:06:44Z</time>
      </trkpt>
      <trkpt lat="46.22262" lon="6.18973">
        <ele>534.94</ele>
        <time>2020-10-08T10:06:56Z</time>
      </trkpt>
      <trkpt lat="46.22217" lon="6.18917">
        <ele>533.34</ele>
        <time>2020-10-08T10:07:05Z</time>
      </trkpt>
      <trkpt lat="46.22162" lon="6.18856">
        <ele>530.9</ele>
        <time>2020-10-08T10:07:14Z</time>
      </trkpt>
      <trkpt lat="46.22109" lon="6.18801">
        <ele>528.02</ele>
        <time>2020-10-08T10:07:21Z</time>
      </trkpt>
      <trkpt lat="46.22062" lon="6.18752">
        <ele>524.84</ele>
        <time>2020-10-08T10:07:27Z</time>
      </trkpt>
      <trkpt lat="46.22009" lon="6.18685">
        <ele>519.57</ele>
        <time>2020-10-08T10:07:36Z</time>
      </trkpt>
      <trkpt lat="46.21969" lon="6.18609">
        <ele>515.68</ele>
        <time>2020-10-08T10:07:43Z</time>
      </trkpt>
      <trkpt lat="46.21926" lon="6.18506">
        <ele>509.76</ele>
        <time>2020-10-08T10:07:52Z</time>
      </trkpt>
      <trkpt lat="46.2189" lon="6.18444">
        <ele>505.69</ele>
        <time>2020-10-08T10:07:58Z</time>
      </trkpt>
      <trkpt lat="46.21824" lon="6.18385">
        <ele>502.14</ele>
        <time>2020-10-08T10:08:07Z</time>
      </trkpt>
      <trkpt lat="46.21761" lon="6.18346">
        <ele>499.9</ele>
        <time>2020-10-08T10:08:16Z</time>
      </trkpt>
      <trkpt lat="46.21715" lon="6.1827">
        <ele>497.37</ele>
        <time>2020-10-08T10:08:25Z</time>
      </trkpt>
      <trkpt lat="46.21658" lon="6.18198">
        <ele>494.31</ele>
        <time>2020-10-08T10:08:34Z</time>
      </trkpt>
      <trkpt lat="46.21613" lon="6.18126">
        <ele>490.01</ele>
        <time>2020-10-08T10:08:43Z</time>
      </trkpt>
      <trkpt lat="46.21573" lon="6.18063">
        <ele>484.94</ele>
        <time>2020-10-08T10:08:53Z</time>
      </trkpt>
      <trkpt lat="46.21518" lon="6.18012">
        <ele>481.99</ele>
        <time>2020-10-08T10:09:02Z</time>
      </trkpt>
      <trkpt lat="46.21459" lon="6.17948">
        <ele>478.44</ele>
        <time>2020-10-08T10:09:11Z</time>
      </trkpt>
      <trkpt lat="46.21421" lon="6.1788">
        <ele>475.13</ele>
        <time>2020-10-08T10:09:17Z</time>
      </trkpt>
      <trkpt lat="46.21378" lon="6.17822">
        <ele>469.17</ele>
        <time>2020-10-08T10:09:26Z</time>
      </trkpt>
      <trkpt lat="46.21326" lon="6.17748">
        <ele>462.72</ele>
        <time>2020-10-08T10:09:35Z</time>
      </trkpt>
      <trkpt lat="46.21284" lon="6.17681">
        <ele>458.3</ele>
        <time>2020-10-08T10:09:41Z</time>
      </trkpt>
      <trkpt lat="46.21242" lon="6.17618">
        <ele>454.34</ele>
        <time>2020-10-08T10:09:47Z</time>
      </trkpt>
      <trkpt lat="46.21197" lon="6.17553">
        <ele>448.96</ele>
        <time>2020-10-08T10:09:54Z</time>
      </trkpt>
      <trkpt lat="46.21148" lon="6.17477">
        <ele>440.53</ele>
        <time>2020-10-08T10:10:03Z</time>
      </trkpt>
      <trkpt lat="46.21139" lon="6.17395">
        <ele>430.84</ele>
        <time>2020-10-08T10:10:12Z</time>
      </trkpt>
      <trkpt lat="46.21175" lon="6.173">
        <ele>423.3</ele>
        <time>2020-10-08T10:10:22Z</time>
      </trkpt>
      <trkpt lat="46.21173" lon="6.17218">
        <ele>420.04</ele>
        <time>2020-10-08T10:12:01Z</time>
      </trkpt>
      <trkpt lat="46.2114" lon="6.17147">
        <ele>420.04</ele>
        <time>2020-10-08T10:12:16Z</time>
      </trkpt>
      <trkpt lat="46.21103" lon="6.17065">
        <ele>420.04</ele>
        <time>2020-10-08T10:12:28Z</time>
      </trkpt>
      <trkpt lat="46.21059" lon="6.16969">
        <ele>420.04</ele>
        <time>2020-10-08T10:12:44Z</time>
      </trkpt>
      <trkpt lat="46.21026" lon="6.16893">
        <ele>420.04</ele>
        <time>2020-10-08T10:12:56Z</time>
      </trkpt>
      <trkpt lat="46.21" lon="6.16817">
        <ele>420.04</ele>
        <time>2020-10-08T10:13:12Z</time>
      </trkpt>
      <trkpt lat="46.20963" lon="6.16733">
        <ele>420.04</ele>
        <time>2020-10-08T10:13:27Z</time>
      </trkpt>
      <trkpt lat="46.20928" lon="6.16659">
        <ele>420.04</ele>
        <time>2020-10-08T10:13:40Z</time>
      </trkpt>
      <trkpt lat="46.20892" lon="6.16583">
        <ele>420.04</ele>
        <time>2020-10-08T10:13:52Z</time>
      </trkpt>
      <trkpt lat="46.2086" lon="6.16507">
        <ele>420.04</ele>
        <time>2020-10-08T10:14:05Z</time>
      </trkpt>
      <trkpt lat="46.20822" lon="6.16425">
        <ele>420.04</ele>
        <time>2020-10-08T10:14:20Z</time>
      </trkpt>
      <trkpt lat="46.20798" lon="6.16341">
        <ele>420.04</ele>
        <time>2020-10-08T10:14:32Z</time>
      </trkpt>
      <trkpt lat="46.20781" lon="6.16253">
        <ele>420.04</ele>
        <time>2020-10-08T10:14:46Z</time>
      </trkpt>
      <trkpt lat="46.2075" lon="6.16172">
        <ele>420.04</ele>
        <time>2020-10-08T10:14:58Z</time>
      </trkpt>
      <trkpt lat="46.20714" lon="6.16095">
        <ele>420.04</ele>
        <time>2020-10-08T10:15:11Z</time>
      </trkpt>
      <trkpt lat="46.20678" lon="6.16018">
        <ele>420.04</ele>
        <time>2020-10-08T10:15:23Z</time>
      </trkpt>
      <trkpt lat="46.20642" lon="6.15943">
        <ele>420.04</ele>
        <time>2020-10-08T10:15:38Z</time>
      </trkpt>
      <trkpt lat="46.20605" lon="6.15863">
        <ele>420.04</ele>
        <time>2020-10-08T10:15:54Z</time>
      </trkpt>
      <trkpt lat="46.20563" lon="6.15785">
        <ele>420.04</ele>
        <time>2020-10-08T10:16:06Z</time>
      </trkpt>
      <trkpt lat="46.20526" lon="6.15702">
        <ele>420.04</ele>
        <time>2020-10-08T10:16:22Z</time>
      </trkpt>
      <trkpt lat="46.20489" lon="6.15623">
        <ele>420.04</ele>
        <time>2020-10-08T10:16:35Z</time>
      </trkpt>
      <trkpt lat="46.20453" lon="6.15549">
        <ele>420.04</ele>
        <time>2020-10-08T10:16:50Z</time>
      </trkpt>
      <trkpt lat="46.20419" lon="6.15476">
        <ele>420.04</ele>
        <time>2020-10-08T10:17:03Z</time>
      </trkpt>
      <trkpt lat="46.2038" lon="6.15398">
        <ele>420.04</ele>
        <time>2020-10-08T10:17:16Z</time>
      </trkpt>
      <trkpt lat="46.20365" lon="6.15293">
        <ele>420.04</ele>
        <time>2020-10-08T10:17:36Z</time>
      </trkpt>
      <trkpt lat="46.2038" lon="6.15207">
        <ele>420.04</ele>
        <time>2020-10-08T10:17:48Z</time>
      </trkpt>
      <trkpt lat="46.204" lon="6.15124">
        <ele>420.04</ele>
        <time>2020-10-08T10:18:03Z</time>
      </trkpt>
      <trkpt lat="46.20438" lon="6.15076">
        <ele>420.04</ele>
        <time>2020-10-08T10:18:42Z</time>
      </trkpt>
      <trkpt lat="46.20495" lon="6.14983">
        <ele>374.2</ele>
        <time>2020-10-08T10:19:00Z</time>
      </trkpt>
      <trkpt lat="46.20486" lon="6.14941">
        <ele>374</ele>
        <time>2020-10-08T10:19:17Z</time>
      </trkpt>
      <trkpt lat="46.20451" lon="6.14858">
        <ele>373.7</ele>
        <time>2020-10-08T10:19:28Z</time>
      </trkpt>
      <trkpt lat="46.2049" lon="6.14664">
        <ele>372.8</ele>
        <time>2020-10-08T10:19:40Z</time>
      </trkpt>
      <trkpt lat="46.20586" lon="6.14711">
        <ele>372.4</ele>
      </trkpt>
      <trkpt lat="46.20664" lon="6.14663">
        <ele>373.8</ele>
        <time>2020-10-08T10:19:52Z</time>
      </trkpt>
      <trkpt lat="46.2066" lon="6.14628">
        <ele>420.04</ele>
        <time>2020-10-08T10:23:19Z</time>
      </trkpt>
      <trkpt lat="46.20641" lon="6.14554">
        <ele>420.04</ele>
        <time>2020-10-08T10:23:39Z</time>
      </trkpt>
      <trkpt lat="46.20623" lon="6.14473">
        <ele>420.04</ele>
        <time>2020-10-08T10:24:00Z</time>
      </trkpt>
      <trkpt lat="46.20597" lon="6.14392">
        <ele>420.04</ele>
        <time>2020-10-08T10:24:15Z</time>
      </trkpt>
      <trkpt lat="46.20576" lon="6.14317">
        <ele>420.04</ele>
        <time>2020-10-08T10:24:37Z</time>
      </trkpt>
      <trkpt lat="46.20558" lon="6.14239">
        <ele>420.04</ele>
        <time>2020-10-08T10:25:09Z</time>
      </trkpt>
      <trkpt lat="46.20551" lon="6.14149">
        <ele>420.04</ele>
        <time>2020-10-08T10:25:28Z</time>
      </trkpt>
      <trkpt lat="46.20539" lon="6.14062">
        <ele>420.04</ele>
        <time>2020-10-08T10:25:46Z</time>
      </trkpt>
      <trkpt lat="46.20536" lon="6.13976">
        <ele>420.04</ele>
        <time>2020-10-08T10:26:02Z</time>
      </trkpt>
      <trkpt lat="46.20533" lon="6.1389">
        <ele>420.04</ele>
        <time>2020-10-08T10:26:20Z</time>
      </trkpt>
      <trkpt lat="46.20538" lon="6.13771">
        <ele>420.04</ele>
        <time>2020-10-08T10:26:38Z</time>
      </trkpt>
      <trkpt lat="46.20542" lon="6.13683">
        <ele>420.04</ele>
        <time>2020-10-08T10:26:50Z</time>
      </trkpt>
      <trkpt lat="46.20525" lon="6.13599">
        <ele>420.04</ele>
        <time>2020-10-08T10:27:09Z</time>
      </trkpt>
      <trkpt lat="46.20488" lon="6.13532">
        <ele>420.04</ele>
        <time>2020-10-08T10:27:23Z</time>
      </trkpt>
      <trkpt lat="46.20447" lon="6.13522">
        <ele>420.04</ele>
        <time>2020-10-08T10:27:43Z</time>
      </trkpt>
      <trkpt lat="46.20396" lon="6.13527">
        <ele>420.04</ele>
        <time>2020-10-08T10:28:00Z</time>
      </trkpt>
      <trkpt lat="46.20409" lon="6.13578">
        <ele>420.04</ele>
        <time>2020-10-08T10:28:43Z</time>
      </trkpt>
      <trkpt lat="46.20396" lon="6.13647">
        <ele>420.04</ele>
        <time>2020-10-08T10:28:59Z</time>
      </trkpt>
      <trkpt lat="46.20382" lon="6.13571">
        <ele>420.04</ele>
        <time>2020-10-08T10:29:20Z</time>
      </trkpt>
      <trkpt lat="46.20365" lon="6.13488">
        <ele>420.04</ele>
        <time>2020-10-08T10:29:36Z</time>
      </trkpt>
      <trkpt lat="46.20331" lon="6.13408">
        <ele>420.04</ele>
        <time>2020-10-08T10:29:49Z</time>
      </trkpt>
      <trkpt lat="46.20304" lon="6.13326">
        <ele>420.04</ele>
        <time>2020-10-08T10:30:04Z</time>
      </trkpt>
      <trkpt lat="46.20282" lon="6.13243">
        <ele>420.04</ele>
        <time>2020-10-08T10:30:20Z</time>
      </trkpt>
      <trkpt lat="46.20271" lon="6.1316">
        <ele>420.04</ele>
        <time>2020-10-08T10:30:35Z</time>
      </trkpt>
      <trkpt lat="46.20264" lon="6.13072">
        <ele>420.04</ele>
        <time>2020-10-08T10:30:54Z</time>
      </trkpt>
      <trkpt lat="46.20265" lon="6.12982">
        <ele>420.04</ele>
        <time>2020-10-08T10:31:09Z</time>
      </trkpt>
      <trkpt lat="46.20266" lon="6.12889">
        <ele>420.04</ele>
        <time>2020-10-08T10:31:24Z</time>
      </trkpt>
      <trkpt lat="46.20262" lon="6.12804">
        <ele>420.04</ele>
        <time>2020-10-08T10:31:40Z</time>
      </trkpt>
      <trkpt lat="46.20253" lon="6.12705">
        <ele>420.04</ele>
        <time>2020-10-08T10:31:54Z</time>
      </trkpt>
      <trkpt lat="46.20238" lon="6.12617">
        <ele>420.04</ele>
        <time>2020-10-08T10:32:08Z</time>
      </trkpt>
      <trkpt lat="46.20167" lon="6.12601">
        <ele>420.04</ele>
        <time>2020-10-08T10:32:24Z</time>
      </trkpt>
      <trkpt lat="46.20109" lon="6.12591">
        <ele>420.04</ele>
        <time>2020-10-08T10:32:40Z</time>
      </trkpt>
      <trkpt lat="46.20039" lon="6.1255">
        <ele>420.04</ele>
        <time>2020-10-08T10:33:03Z</time>
      </trkpt>
      <trkpt lat="46.20008" lon="6.12534">
        <ele>375.1</ele>
        <time>2020-10-08T10:33:25Z</time>
      </trkpt>
      <trkpt lat="46.19998" lon="6.1254">
        <ele>377.6</ele>
        <time>2020-10-08T10:33:48Z</time>
      </trkpt>
      <trkpt lat="46.19995" lon="6.12583">
        <ele>424.6</ele>
        <time>2020-10-08T10:34:22Z</time>
      </trkpt>
      <trkpt lat="46.19982" lon="6.12679">
        <ele>425.18</ele>
        <time>2020-10-08T10:34:35Z</time>
      </trkpt>
      <trkpt lat="46.19935" lon="6.12766">
        <ele>425.38</ele>
        <time>2020-10-08T10:34:47Z</time>
      </trkpt>
      <trkpt lat="46.19918" lon="6.12809">
        <ele>422.84</ele>
        <time>2020-10-08T10:35:51Z</time>
      </trkpt>
      <trkpt lat="46.19876" lon="6.1289">
        <ele>421.17</ele>
        <time>2020-10-08T10:36:07Z</time>
      </trkpt>
      <trkpt lat="46.19838" lon="6.12959">
        <ele>421.08</ele>
        <time>2020-10-08T10:36:25Z</time>
      </trkpt>
      <trkpt lat="46.19792" lon="6.13029">
        <ele>421.2</ele>
        <time>2020-10-08T10:36:51Z</time>
      </trkpt>
      <trkpt lat="46.19744" lon="6.13089">
        <ele>422.81</ele>
        <time>2020-10-08T10:37:13Z</time>
      </trkpt>
      <trkpt lat="46.19695" lon="6.1316">
        <ele>422.91</ele>
        <time>2020-10-08T10:37:31Z</time>
      </trkpt>
      <trkpt lat="46.19654" lon="6.13231">
        <ele>422.77</ele>
        <time>2020-10-08T10:37:45Z</time>
      </trkpt>
      <trkpt lat="46.19614" lon="6.13313">
        <ele>421.58</ele>
        <time>2020-10-08T10:37:59Z</time>
      </trkpt>
      <trkpt lat="46.19569" lon="6.13387">
        <ele>421.72</ele>
        <time>2020-10-08T10:38:11Z</time>
      </trkpt>
      <trkpt lat="46.19529" lon="6.13463">
        <ele>421.72</ele>
        <time>2020-10-08T10:38:23Z</time>
      </trkpt>
      <trkpt lat="46.19492" lon="6.13535">
        <ele>421.72</ele>
        <time>2020-10-08T10:38:39Z</time>
      </trkpt>
      <trkpt lat="46.19467" lon="6.13602">
        <ele>421.72</ele>
        <time>2020-10-08T10:40:03Z</time>
      </trkpt>
      <trkpt lat="46.19428" lon="6.13672">
        <ele>421.72</ele>
        <time>2020-10-08T10:40:19Z</time>
      </trkpt>
      <trkpt lat="46.19386" lon="6.13742">
        <ele>421.72</ele>
        <time>2020-10-08T10:40:37Z</time>
      </trkpt>
      <trkpt lat="46.1933" lon="6.13843">
        <ele>421.72</ele>
        <time>2020-10-08T10:40:58Z</time>
      </trkpt>
      <trkpt lat="46.1928" lon="6.13898">
        <ele>421.72</ele>
        <time>2020-10-08T10:41:26Z</time>
      </trkpt>
      <trkpt lat="46.19219" lon="6.13932">
        <ele>421.72</ele>
        <time>2020-10-08T10:41:41Z</time>
      </trkpt>
      <trkpt lat="46.19158" lon="6.13957">
        <ele>421.72</ele>
        <time>2020-10-08T10:41:56Z</time>
      </trkpt>
      <trkpt lat="46.19094" lon="6.1398">
        <ele>421.72</ele>
        <time>2020-10-08T10:42:11Z</time>
      </trkpt>
      <trkpt lat="46.19038" lon="6.14018">
        <ele>421.72</ele>
        <time>2020-10-08T10:42:53Z</time>
      </trkpt>
      <trkpt lat="46.18976" lon="6.14044">
        <ele>421.72</ele>
        <time>2020-10-08T10:43:17Z</time>
      </trkpt>
      <trkpt lat="46.18905" lon="6.14083">
        <ele>421.72</ele>
        <time>2020-10-08T10:43:38Z</time>
      </trkpt>
      <trkpt lat="46.18839" lon="6.1412">
        <ele>421.72</ele>
        <time>2020-10-08T10:43:55Z</time>
      </trkpt>
      <trkpt lat="46.18775" lon="6.14158">
        <ele>426.1</ele>
        <time>2020-10-08T10:44:47Z</time>
      </trkpt>
      <trkpt lat="46.18729" lon="6.14213">
        <ele>425.05</ele>
        <time>2020-10-08T10:45:04Z</time>
      </trkpt>
      <trkpt lat="46.18687" lon="6.14302">
        <ele>423.83</ele>
        <time>2020-10-08T10:45:25Z</time>
      </trkpt>
      <trkpt lat="46.18667" lon="6.14389">
        <ele>423.8</ele>
        <time>2020-10-08T10:45:43Z</time>
      </trkpt>
      <trkpt lat="46.18648" lon="6.14489">
        <ele>424.13</ele>
        <time>2020-10-08T10:46:01Z</time>
      </trkpt>
      <trkpt lat="46.18632" lon="6.14584">
        <ele>423.04</ele>
        <time>2020-10-08T10:46:18Z</time>
      </trkpt>
      <trkpt lat="46.18646" lon="6.14678">
        <ele>422.55</ele>
        <time>2020-10-08T10:46:42Z</time>
      </trkpt>
      <trkpt lat="46.18647" lon="6.14781">
        <ele>424.12</ele>
        <time>2020-10-08T10:47:10Z</time>
      </trkpt>
      <trkpt lat="46.1865" lon="6.14884">
        <ele>424.16</ele>
        <time>2020-10-08T10:47:27Z</time>
      </trkpt>
      <trkpt lat="46.18643" lon="6.14983">
        <ele>424.57</ele>
        <time>2020-10-08T10:47:44Z</time>
      </trkpt>
      <trkpt lat="46.18626" lon="6.15078">
        <ele>424.7</ele>
        <time>2020-10-08T10:48:31Z</time>
      </trkpt>
      <trkpt lat="46.18563" lon="6.15066">
        <ele>424.7</ele>
        <time>2020-10-08T10:48:47Z</time>
      </trkpt>
      <trkpt lat="46.18486" lon="6.1503">
        <ele>424.7</ele>
        <time>2020-10-08T10:49:08Z</time>
      </trkpt>
      <trkpt lat="46.1845" lon="6.15086">
        <ele>428.64</ele>
        <time>2020-10-08T10:50:27Z</time>
      </trkpt>
      <trkpt lat="46.18416" lon="6.15142">
        <ele>428.64</ele>
        <time>2020-10-08T10:50:47Z</time>
      </trkpt>
      <trkpt lat="46.18389" lon="6.15222">
        <ele>428.64</ele>
        <time>2020-10-08T10:51:02Z</time>
      </trkpt>
      <trkpt lat="46.18359" lon="6.15299">
        <ele>428.64</ele>
        <time>2020-10-08T10:51:19Z</time>
      </trkpt>
      <trkpt lat="46.18336" lon="6.15374">
        <ele>428.64</ele>
        <time>2020-10-08T10:51:37Z</time>
      </trkpt>
      <trkpt lat="46.18308" lon="6.15456">
        <ele>428.64</ele>
        <time>2020-10-08T10:51:49Z</time>
      </trkpt>
      <trkpt lat="46.18253" lon="6.15444">
        <ele>428.64</ele>
        <time>2020-10-08T10:52:55Z</time>
      </trkpt>
      <trkpt lat="46.18193" lon="6.15431">
        <ele>428.64</ele>
        <time>2020-10-08T10:53:30Z</time>
      </trkpt>
      <trkpt lat="46.18129" lon="6.15413">
        <ele>428.64</ele>
        <time>2020-10-08T10:53:51Z</time>
      </trkpt>
      <trkpt lat="46.18069" lon="6.15408">
        <ele>428.64</ele>
        <time>2020-10-08T10:54:07Z</time>
      </trkpt>
      <trkpt lat="46.18006" lon="6.15438">
        <ele>428.64</ele>
        <time>2020-10-08T10:54:31Z</time>
      </trkpt>
      <trkpt lat="46.17944" lon="6.15471">
        <ele>428.64</ele>
        <time>2020-10-08T10:54:45Z</time>
      </trkpt>
      <trkpt lat="46.17892" lon="6.15513">
        <ele>428.64</ele>
        <time>2020-10-08T10:55:00Z</time>
      </trkpt>
      <trkpt lat="46.17862" lon="6.15605">
        <ele>428.64</ele>
        <time>2020-10-08T10:55:12Z</time>
      </trkpt>
      <trkpt lat="46.17839" lon="6.15693">
        <ele>428.64</ele>
        <time>2020-10-08T10:55:25Z</time>
      </trkpt>
      <trkpt lat="46.17832" lon="6.15784">
        <ele>428.64</ele>
        <time>2020-10-08T10:55:42Z</time>
      </trkpt>
      <trkpt lat="46.17871" lon="6.15859">
        <ele>428.64</ele>
        <time>2020-10-08T10:55:58Z</time>
      </trkpt>
      <trkpt lat="46.17923" lon="6.15898">
        <ele>428.64</ele>
        <time>2020-10-08T10:56:13Z</time>
      </trkpt>
      <trkpt lat="46.17988" lon="6.15908">
        <ele>428.64</ele>
        <time>2020-10-08T10:56:27Z</time>
      </trkpt>
      <trkpt lat="46.1805" lon="6.15922">
        <ele>428.64</ele>
        <time>2020-10-08T10:56:39Z</time>
      </trkpt>
      <trkpt lat="46.18111" lon="6.15929">
        <ele>428.64</ele>
        <time>2020-10-08T10:56:55Z</time>
      </trkpt>
      <trkpt lat="46.18092" lon="6.16049">
        <ele>434.39</ele>
        <time>2020-10-08T10:57:25Z</time>
      </trkpt>
      <trkpt lat="46.18104" lon="6.16133">
        <ele>434.47</ele>
        <time>2020-10-08T10:57:40Z</time>
      </trkpt>
      <trkpt lat="46.18141" lon="6.16194">
        <ele>434.56</ele>
        <time>2020-10-08T10:57:51Z</time>
      </trkpt>
      <trkpt lat="46.18205" lon="6.16303">
        <ele>388</ele>
        <time>2020-10-08T10:58:04Z</time>
      </trkpt>
      <trkpt lat="46.1816" lon="6.16522">
        <ele>409.1</ele>
        <time>2020-10-08T10:59:14Z</time>
      </trkpt>
      <trkpt lat="46.18138" lon="6.16579">
        <ele>410</ele>
        <time>2020-10-08T10:59:33Z</time>
      </trkpt>
      <trkpt lat="46.18099" lon="6.16643">
        <ele>411</ele>
        <time>2020-10-08T11:12:50Z</time>
      </trkpt>
      <trkpt lat="46.18001" lon="6.16548">
        <ele>459.15</ele>
        <time>2020-10-08T11:13:00Z</time>
      </trkpt>
      <trkpt lat="46.17946" lon="6.16504">
        <ele>459.88</ele>
        <time>2020-10-08T11:13:14Z</time>
      </trkpt>
      <trkpt lat="46.17919" lon="6.16576">
        <ele>460.8</ele>
        <time>2020-10-08T11:13:29Z</time>
      </trkpt>
      <trkpt lat="46.17872" lon="6.16598">
        <ele>460.88</ele>
        <time>2020-10-08T11:13:45Z</time>
      </trkpt>
      <trkpt lat="46.17813" lon="6.16564">
        <ele>462.24</ele>
        <time>2020-10-08T11:13:58Z</time>
      </trkpt>
      <trkpt lat="46.17754" lon="6.16531">
        <ele>463.33</ele>
        <time>2020-10-08T11:14:10Z</time>
      </trkpt>
      <trkpt lat="46.17711" lon="6.16575">
        <ele>461.96</ele>
        <time>2020-10-08T11:14:26Z</time>
      </trkpt>
      <trkpt lat="46.17658" lon="6.1663">
        <ele>461.89</ele>
        <time>2020-10-08T11:14:42Z</time>
      </trkpt>
      <trkpt lat="46.17625" lon="6.16735">
        <ele>462.21</ele>
        <time>2020-10-08T11:15:25Z</time>
      </trkpt>
      <trkpt lat="46.17599" lon="6.16816">
        <ele>462.52</ele>
        <time>2020-10-08T11:15:38Z</time>
      </trkpt>
      <trkpt lat="46.17549" lon="6.16849">
        <ele>462.37</ele>
        <time>2020-10-08T11:15:54Z</time>
      </trkpt>
      <trkpt lat="46.17492" lon="6.1685">
        <ele>462.62</ele>
        <time>2020-10-08T11:16:10Z</time>
      </trkpt>
      <trkpt lat="46.17448" lon="6.16875">
        <ele>464.42</ele>
        <time>2020-10-08T11:16:55Z</time>
      </trkpt>
      <trkpt lat="46.17413" lon="6.16939">
        <ele>466.33</ele>
        <time>2020-10-08T11:17:18Z</time>
      </trkpt>
      <trkpt lat="46.17417" lon="6.1699">
        <ele>467.01</ele>
        <time>2020-10-08T11:21:35Z</time>
      </trkpt>
      <trkpt lat="46.17441" lon="6.17077">
        <ele>467.01</ele>
        <time>2020-10-08T11:21:48Z</time>
      </trkpt>
      <trkpt lat="46.17456" lon="6.17161">
        <ele>467.01</ele>
        <time>2020-10-08T11:22:01Z</time>
      </trkpt>
      <trkpt lat="46.17473" lon="6.17247">
        <ele>467.01</ele>
        <time>2020-10-08T11:22:11Z</time>
      </trkpt>
      <trkpt lat="46.17489" lon="6.1733">
        <ele>467.01</ele>
        <time>2020-10-08T11:22:20Z</time>
      </trkpt>
      <trkpt lat="46.1751" lon="6.17419">
        <ele>467.01</ele>
        <time>2020-10-08T11:22:31Z</time>
      </trkpt>
      <trkpt lat="46.17531" lon="6.17506">
        <ele>467.01</ele>
        <time>2020-10-08T11:22:43Z</time>
      </trkpt>
      <trkpt lat="46.17554" lon="6.17595">
        <ele>464.21</ele>
        <time>2020-10-08T11:22:54Z</time>
      </trkpt>
      <trkpt lat="46.17578" lon="6.17679">
        <ele>463.62</ele>
        <time>2020-10-08T11:23:06Z</time>
      </trkpt>
      <trkpt lat="46.17602" lon="6.17765">
        <ele>463.45</ele>
        <time>2020-10-08T11:23:16Z</time>
      </trkpt>
      <trkpt lat="46.17627" lon="6.17845">
        <ele>463.03</ele>
        <time>2020-10-08T11:23:25Z</time>
      </trkpt>
      <trkpt lat="46.17652" lon="6.17924">
        <ele>462.61</ele>
        <time>2020-10-08T11:23:34Z</time>
      </trkpt>
      <trkpt lat="46.17682" lon="6.17985">
        <ele>462.1</ele>
        <time>2020-10-08T11:23:45Z</time>
      </trkpt>
      <trkpt lat="46.1774" lon="6.18001">
        <ele>459.94</ele>
        <time>2020-10-08T11:23:59Z</time>
      </trkpt>
      <trkpt lat="46.17784" lon="6.18062">
        <ele>458.13</ele>
        <time>2020-10-08T11:24:06Z</time>
      </trkpt>
      <trkpt lat="46.17834" lon="6.18155">
        <ele>454.92</ele>
        <time>2020-10-08T11:24:14Z</time>
      </trkpt>
      <trkpt lat="46.17873" lon="6.18229">
        <ele>451.4</ele>
        <time>2020-10-08T11:24:20Z</time>
      </trkpt>
      <trkpt lat="46.1792" lon="6.18273">
        <ele>448.64</ele>
        <time>2020-10-08T11:24:26Z</time>
      </trkpt>
      <trkpt lat="46.17984" lon="6.18287">
        <ele>446.78</ele>
        <time>2020-10-08T11:24:36Z</time>
      </trkpt>
      <trkpt lat="46.18021" lon="6.18358">
        <ele>445.51</ele>
        <time>2020-10-08T11:24:48Z</time>
      </trkpt>
      <trkpt lat="46.18042" lon="6.18441">
        <ele>444.33</ele>
        <time>2020-10-08T11:24:57Z</time>
      </trkpt>
      <trkpt lat="46.18042" lon="6.18529">
        <ele>443.46</ele>
        <time>2020-10-08T11:25:07Z</time>
      </trkpt>
      <trkpt lat="46.18039" lon="6.18626">
        <ele>443.08</ele>
        <time>2020-10-08T11:25:19Z</time>
      </trkpt>
      <trkpt lat="46.18053" lon="6.18702">
        <ele>443.07</ele>
        <time>2020-10-08T11:25:28Z</time>
      </trkpt>
      <trkpt lat="46.18085" lon="6.18769">
        <ele>442.86</ele>
        <time>2020-10-08T11:25:37Z</time>
      </trkpt>
      <trkpt lat="46.18135" lon="6.18817">
        <ele>442.78</ele>
        <time>2020-10-08T11:25:47Z</time>
      </trkpt>
      <trkpt lat="46.18165" lon="6.18835">
        <ele>395.8</ele>
      </trkpt>
      <trkpt lat="46.18164" lon="6.18871">
        <ele>443.03</ele>
        <time>2020-10-08T11:26:03Z</time>
      </trkpt>
      <trkpt lat="46.18142" lon="6.18952">
        <ele>443.3</ele>
        <time>2020-10-08T11:26:15Z</time>
      </trkpt>
      <trkpt lat="46.1813" lon="6.18985">
        <ele>396.2</ele>
        <time>2020-10-08T11:26:33Z</time>
      </trkpt>
      <trkpt lat="46.18129" lon="6.19011">
        <ele>396.4</ele>
        <time>2020-10-08T11:26:52Z</time>
      </trkpt>
      <trkpt lat="46.18123" lon="6.19032">
        <ele>396.5</ele>
        <time>2020-10-08T11:27:06Z</time>
      </trkpt>
      <trkpt lat="46.18123" lon="6.1906">
        <ele>397</ele>
        <time>2020-10-08T11:27:19Z</time>
      </trkpt>
      <trkpt lat="46.18117" lon="6.19103">
        <ele>396.9</ele>
        <time>2020-10-08T11:28:38Z</time>
      </trkpt>
      <trkpt lat="46.18141" lon="6.19171">
        <ele>445.82</ele>
        <time>2020-10-08T11:28:48Z</time>
      </trkpt>
      <trkpt lat="46.18058" lon="6.19176">
        <ele>444.25</ele>
        <time>2020-10-08T11:29:04Z</time>
      </trkpt>
      <trkpt lat="46.17996" lon="6.1918">
        <ele>443.71</ele>
        <time>2020-10-08T11:29:16Z</time>
      </trkpt>
      <trkpt lat="46.17957" lon="6.19241">
        <ele>442.64</ele>
        <time>2020-10-08T11:29:28Z</time>
      </trkpt>
      <trkpt lat="46.17895" lon="6.19277">
        <ele>441.93</ele>
        <time>2020-10-08T11:29:41Z</time>
      </trkpt>
      <trkpt lat="46.1783" lon="6.19261">
        <ele>441.96</ele>
        <time>2020-10-08T11:29:52Z</time>
      </trkpt>
      <trkpt lat="46.17771" lon="6.19252">
        <ele>441.85</ele>
        <time>2020-10-08T11:30:06Z</time>
      </trkpt>
      <trkpt lat="46.17759" lon="6.19173">
        <ele>442.23</ele>
        <time>2020-10-08T11:30:20Z</time>
      </trkpt>
      <trkpt lat="46.17759" lon="6.1909">
        <ele>442.22</ele>
        <time>2020-10-08T11:30:29Z</time>
      </trkpt>
      <trkpt lat="46.17738" lon="6.19009">
        <ele>441.76</ele>
        <time>2020-10-08T11:30:42Z</time>
      </trkpt>
      <trkpt lat="46.17728" lon="6.18918">
        <ele>441.78</ele>
        <time>2020-10-08T11:30:55Z</time>
      </trkpt>
      <trkpt lat="46.17737" lon="6.18833">
        <ele>441.78</ele>
        <time>2020-10-08T11:31:09Z</time>
      </trkpt>
      <trkpt lat="46.17741" lon="6.18806">
        <ele>393</ele>
      </trkpt>
      <trkpt lat="46.17704" lon="6.18804">
        <ele>441.78</ele>
        <time>2020-10-08T11:31:25Z</time>
      </trkpt>
      <trkpt lat="46.17633" lon="6.18835">
        <ele>441.78</ele>
        <time>2020-10-08T11:32:54Z</time>
      </trkpt>
      <trkpt lat="46.17566" lon="6.18885">
        <ele>441.78</ele>
        <time>2020-10-08T11:33:10Z</time>
      </trkpt>
      <trkpt lat="46.17507" lon="6.18945">
        <ele>441.78</ele>
        <time>2020-10-08T11:33:25Z</time>
      </trkpt>
      <trkpt lat="46.17455" lon="6.19015">
        <ele>441.78</ele>
        <time>2020-10-08T11:33:37Z</time>
      </trkpt>
      <trkpt lat="46.17428" lon="6.19099">
        <ele>441.78</ele>
        <time>2020-10-08T11:33:54Z</time>
      </trkpt>
      <trkpt lat="46.17434" lon="6.19194">
        <ele>441.78</ele>
        <time>2020-10-08T11:34:07Z</time>
      </trkpt>
      <trkpt lat="46.17462" lon="6.19281">
        <ele>441.78</ele>
        <time>2020-10-08T11:34:22Z</time>
      </trkpt>
      <trkpt lat="46.17489" lon="6.19376">
        <ele>441.78</ele>
        <time>2020-10-08T11:34:37Z</time>
      </trkpt>
      <trkpt lat="46.17525" lon="6.19455">
        <ele>441.78</ele>
        <time>2020-10-08T11:34:52Z</time>
      </trkpt>
      <trkpt lat="46.17566" lon="6.19572">
        <ele>441.78</ele>
        <time>2020-10-08T11:35:13Z</time>
      </trkpt>
      <trkpt lat="46.17559" lon="6.19671">
        <ele>441.78</ele>
        <time>2020-10-08T11:35:29Z</time>
      </trkpt>
      <trkpt lat="46.17542" lon="6.19776">
        <ele>441.78</ele>
        <time>2020-10-08T11:35:43Z</time>
      </trkpt>
      <trkpt lat="46.17518" lon="6.19876">
        <ele>441.78</ele>
        <time>2020-10-08T11:35:56Z</time>
      </trkpt>
      <trkpt lat="46.1749" lon="6.19964">
        <ele>441.78</ele>
        <time>2020-10-08T11:36:11Z</time>
      </trkpt>
      <trkpt lat="46.17471" lon="6.2005">
        <ele>441.78</ele>
        <time>2020-10-08T11:36:23Z</time>
      </trkpt>
      <trkpt lat="46.1746" lon="6.20153">
        <ele>441.78</ele>
        <time>2020-10-08T11:36:35Z</time>
      </trkpt>
      <trkpt lat="46.17457" lon="6.20238">
        <ele>441.78</ele>
        <time>2020-10-08T11:36:49Z</time>
      </trkpt>
      <trkpt lat="46.1746" lon="6.20324">
        <ele>441.78</ele>
        <time>2020-10-08T11:37:02Z</time>
      </trkpt>
      <trkpt lat="46.17465" lon="6.20411">
        <ele>441.78</ele>
        <time>2020-10-08T11:37:16Z</time>
      </trkpt>
      <trkpt lat="46.17472" lon="6.20487">
        <ele>441.78</ele>
        <time>2020-10-08T11:37:29Z</time>
      </trkpt>
      <trkpt lat="46.17473" lon="6.20578">
        <ele>441.78</ele>
        <time>2020-10-08T11:37:43Z</time>
      </trkpt>
      <trkpt lat="46.17473" lon="6.20671">
        <ele>441.78</ele>
        <time>2020-10-08T11:37:55Z</time>
      </trkpt>
      <trkpt lat="46.17474" lon="6.20765">
        <ele>444.76</ele>
        <time>2020-10-08T11:38:12Z</time>
      </trkpt>
      <trkpt lat="46.1748" lon="6.2086">
        <ele>444.98</ele>
        <time>2020-10-08T11:38:24Z</time>
      </trkpt>
      <trkpt lat="46.17483" lon="6.2095">
        <ele>445.53</ele>
        <time>2020-10-08T11:38:39Z</time>
      </trkpt>
      <trkpt lat="46.17485" lon="6.21043">
        <ele>445.87</ele>
        <time>2020-10-08T11:38:53Z</time>
      </trkpt>
      <trkpt lat="46.17487" lon="6.21126">
        <ele>446.82</ele>
        <time>2020-10-08T11:39:05Z</time>
      </trkpt>
      <trkpt lat="46.17486" lon="6.21214">
        <ele>446.42</ele>
        <time>2020-10-08T11:39:22Z</time>
      </trkpt>
      <trkpt lat="46.17498" lon="6.2131">
        <ele>444.86</ele>
        <time>2020-10-08T11:39:57Z</time>
      </trkpt>
      <trkpt lat="46.17513" lon="6.21398">
        <ele>445.76</ele>
        <time>2020-10-08T11:40:12Z</time>
      </trkpt>
      <trkpt lat="46.17546" lon="6.21526">
        <ele>446.49</ele>
        <time>2020-10-08T11:40:30Z</time>
      </trkpt>
      <trkpt lat="46.1757" lon="6.2162">
        <ele>447.22</ele>
        <time>2020-10-08T11:40:46Z</time>
      </trkpt>
      <trkpt lat="46.17611" lon="6.21694">
        <ele>448.25</ele>
        <time>2020-10-08T11:41:02Z</time>
      </trkpt>
      <trkpt lat="46.17668" lon="6.21738">
        <ele>449.19</ele>
        <time>2020-10-08T11:41:16Z</time>
      </trkpt>
      <trkpt lat="46.17717" lon="6.2179">
        <ele>449.73</ele>
        <time>2020-10-08T11:41:35Z</time>
      </trkpt>
      <trkpt lat="46.17772" lon="6.21834">
        <ele>448.01</ele>
        <time>2020-10-08T11:41:47Z</time>
      </trkpt>
      <trkpt lat="46.17833" lon="6.21871">
        <ele>448.71</ele>
        <time>2020-10-08T11:41:59Z</time>
      </trkpt>
      <trkpt lat="46.17892" lon="6.21908">
        <ele>448.92</ele>
        <time>2020-10-08T11:42:10Z</time>
      </trkpt>
      <trkpt lat="46.17953" lon="6.21948">
        <ele>448.92</ele>
        <time>2020-10-08T11:42:21Z</time>
      </trkpt>
      <trkpt lat="46.18015" lon="6.21982">
        <ele>448.92</ele>
        <time>2020-10-08T11:42:36Z</time>
      </trkpt>
      <trkpt lat="46.18083" lon="6.22014">
        <ele>448.92</ele>
        <time>2020-10-08T11:42:48Z</time>
      </trkpt>
      <trkpt lat="46.18141" lon="6.22047">
        <ele>448.92</ele>
        <time>2020-10-08T11:43:02Z</time>
      </trkpt>
      <trkpt lat="46.18199" lon="6.22077">
        <ele>448.92</ele>
        <time>2020-10-08T11:43:17Z</time>
      </trkpt>
      <trkpt lat="46.18255" lon="6.22112">
        <ele>448.92</ele>
        <time>2020-10-08T11:43:31Z</time>
      </trkpt>
      <trkpt lat="46.18314" lon="6.22144">
        <ele>448.92</ele>
        <time>2020-10-08T11:43:43Z</time>
      </trkpt>
      <trkpt lat="46.18367" lon="6.22197">
        <ele>448.92</ele>
        <time>2020-10-08T11:44:00Z</time>
      </trkpt>
      <trkpt lat="46.18417" lon="6.22253">
        <ele>448.92</ele>
        <time>2020-10-08T11:44:12Z</time>
      </trkpt>
      <trkpt lat="46.18458" lon="6.22323">
        <ele>448.92</ele>
        <time>2020-10-08T11:44:26Z</time>
      </trkpt>
      <trkpt lat="46.18493" lon="6.22386">
        <ele>448.92</ele>
        <time>2020-10-08T11:44:41Z</time>
      </trkpt>
      <trkpt lat="46.18512" lon="6.22477">
        <ele>448.92</ele>
        <time>2020-10-08T11:44:55Z</time>
      </trkpt>
      <trkpt lat="46.18516" lon="6.22569">
        <ele>448.92</ele>
        <time>2020-10-08T11:45:07Z</time>
      </trkpt>
      <trkpt lat="46.18511" lon="6.22655">
        <ele>448.92</ele>
        <time>2020-10-08T11:45:21Z</time>
      </trkpt>
      <trkpt lat="46.18481" lon="6.22766">
        <ele>448.92</ele>
        <time>2020-10-08T11:45:44Z</time>
      </trkpt>
      <trkpt lat="46.18453" lon="6.22839">
        <ele>448.92</ele>
        <time>2020-10-08T11:46:02Z</time>
      </trkpt>
      <trkpt lat="46.18455" lon="6.22887">
        <ele>452.06</ele>
        <time>2020-10-08T11:46:55Z</time>
      </trkpt>
      <trkpt lat="46.18509" lon="6.2293">
        <ele>453.57</ele>
        <time>2020-10-08T11:47:12Z</time>
      </trkpt>
      <trkpt lat="46.18564" lon="6.22964">
        <ele>454.6</ele>
        <time>2020-10-08T11:47:24Z</time>
      </trkpt>
      <trkpt lat="46.18625" lon="6.22963">
        <ele>456.69</ele>
        <time>2020-10-08T11:47:38Z</time>
      </trkpt>
      <trkpt lat="46.18681" lon="6.22944">
        <ele>458.9</ele>
        <time>2020-10-08T11:47:51Z</time>
      </trkpt>
      <trkpt lat="46.18732" lon="6.22896">
        <ele>459.69</ele>
        <time>2020-10-08T11:48:04Z</time>
      </trkpt>
      <trkpt lat="46.18781" lon="6.22841">
        <ele>459.2</ele>
        <time>2020-10-08T11:48:16Z</time>
      </trkpt>
      <trkpt lat="46.18833" lon="6.22791">
        <ele>458.97</ele>
        <time>2020-10-08T11:48:31Z</time>
      </trkpt>
      <trkpt lat="46.18886" lon="6.22758">
        <ele>460.17</ele>
        <time>2020-10-08T11:48:44Z</time>
      </trkpt>
      <trkpt lat="46.18947" lon="6.22736">
        <ele>462.14</ele>
        <time>2020-10-08T11:48:59Z</time>
      </trkpt>
      <trkpt lat="46.1901" lon="6.22734">
        <ele>462.13</ele>
        <time>2020-10-08T11:49:15Z</time>
      </trkpt>
      <trkpt lat="46.19067" lon="6.22742">
        <ele>466.25</ele>
        <time>2020-10-08T11:49:33Z</time>
      </trkpt>
      <trkpt lat="46.19125" lon="6.22752">
        <ele>471.99</ele>
        <time>2020-10-08T11:49:52Z</time>
      </trkpt>
      <trkpt lat="46.19183" lon="6.22765">
        <ele>475.87</ele>
        <time>2020-10-08T11:50:08Z</time>
      </trkpt>
      <trkpt lat="46.19243" lon="6.22779">
        <ele>476.42</ele>
        <time>2020-10-08T11:50:24Z</time>
      </trkpt>
      <trkpt lat="46.19289" lon="6.2281">
        <ele>477.19</ele>
        <time>2020-10-08T11:50:49Z</time>
      </trkpt>
      <trkpt lat="46.19308" lon="6.22873">
        <ele>477.87</ele>
        <time>2020-10-08T11:51:39Z</time>
      </trkpt>
      <trkpt lat="46.19365" lon="6.22866">
        <ele>478.09</ele>
        <time>2020-10-08T11:52:09Z</time>
      </trkpt>
      <trkpt lat="46.19413" lon="6.22818">
        <ele>479.06</ele>
        <time>2020-10-08T11:52:37Z</time>
      </trkpt>
      <trkpt lat="46.19491" lon="6.22773">
        <ele>477.03</ele>
        <time>2020-10-08T11:53:38Z</time>
      </trkpt>
      <trkpt lat="46.19551" lon="6.22756">
        <ele>476.9</ele>
        <time>2020-10-08T11:53:51Z</time>
      </trkpt>
      <trkpt lat="46.19614" lon="6.22758">
        <ele>476.74</ele>
        <time>2020-10-08T11:54:04Z</time>
      </trkpt>
      <trkpt lat="46.19657" lon="6.22813">
        <ele>476.65</ele>
        <time>2020-10-08T11:54:17Z</time>
      </trkpt>
      <trkpt lat="46.197" lon="6.22886">
        <ele>477.03</ele>
        <time>2020-10-08T11:54:29Z</time>
      </trkpt>
      <trkpt lat="46.19737" lon="6.22955">
        <ele>477.03</ele>
        <time>2020-10-08T11:54:39Z</time>
      </trkpt>
      <trkpt lat="46.19776" lon="6.23027">
        <ele>477.03</ele>
        <time>2020-10-08T11:54:52Z</time>
      </trkpt>
      <trkpt lat="46.19815" lon="6.23098">
        <ele>477.03</ele>
        <time>2020-10-08T11:55:04Z</time>
      </trkpt>
      <trkpt lat="46.19842" lon="6.23181">
        <ele>477.03</ele>
        <time>2020-10-08T11:55:18Z</time>
      </trkpt>
      <trkpt lat="46.19862" lon="6.2326">
        <ele>480.95</ele>
        <time>2020-10-08T11:55:28Z</time>
      </trkpt>
      <trkpt lat="46.19885" lon="6.23346">
        <ele>481.41</ele>
        <time>2020-10-08T11:55:39Z</time>
      </trkpt>
      <trkpt lat="46.19917" lon="6.23425">
        <ele>481.51</ele>
        <time>2020-10-08T11:55:50Z</time>
      </trkpt>
      <trkpt lat="46.19945" lon="6.23499">
        <ele>480.94</ele>
        <time>2020-10-08T11:56:00Z</time>
      </trkpt>
      <trkpt lat="46.19991" lon="6.23588">
        <ele>435</ele>
        <time>2020-10-08T11:56:12Z</time>
      </trkpt>
      <trkpt lat="46.20019" lon="6.23578">
        <ele>434.8</ele>
        <time>2020-10-08T11:57:05Z</time>
      </trkpt>
      <trkpt lat="46.20047" lon="6.23567">
        <ele>481.18</ele>
        <time>2020-10-08T11:57:21Z</time>
      </trkpt>
      <trkpt lat="46.20099" lon="6.23534">
        <ele>482</ele>
        <time>2020-10-08T12:01:27Z</time>
      </trkpt>
      <trkpt lat="46.20141" lon="6.236">
        <ele>482.19</ele>
        <time>2020-10-08T12:01:43Z</time>
      </trkpt>
      <trkpt lat="46.20182" lon="6.23667">
        <ele>482.4</ele>
        <time>2020-10-08T12:01:55Z</time>
      </trkpt>
      <trkpt lat="46.20222" lon="6.23735">
        <ele>482.76</ele>
        <time>2020-10-08T12:02:06Z</time>
      </trkpt>
      <trkpt lat="46.20259" lon="6.23801">
        <ele>483.41</ele>
        <time>2020-10-08T12:02:17Z</time>
      </trkpt>
      <trkpt lat="46.20295" lon="6.23866">
        <ele>483.8</ele>
        <time>2020-10-08T12:02:27Z</time>
      </trkpt>
      <trkpt lat="46.20342" lon="6.23935">
        <ele>484</ele>
        <time>2020-10-08T12:02:38Z</time>
      </trkpt>
      <trkpt lat="46.20386" lon="6.24">
        <ele>484.14</ele>
        <time>2020-10-08T12:02:48Z</time>
      </trkpt>
      <trkpt lat="46.20412" lon="6.24078">
        <ele>484.34</ele>
        <time>2020-10-08T12:03:02Z</time>
      </trkpt>
      <trkpt lat="46.20416" lon="6.24164">
        <ele>485.02</ele>
        <time>2020-10-08T12:03:14Z</time>
      </trkpt>
      <trkpt lat="46.20409" lon="6.24254">
        <ele>486.79</ele>
        <time>2020-10-08T12:03:26Z</time>
      </trkpt>
      <trkpt lat="46.20403" lon="6.24342">
        <ele>489.32</ele>
        <time>2020-10-08T12:03:40Z</time>
      </trkpt>
      <trkpt lat="46.20388" lon="6.24429">
        <ele>492.3</ele>
        <time>2020-10-08T12:03:57Z</time>
      </trkpt>
      <trkpt lat="46.20364" lon="6.24467">
        <ele>441.8</ele>
        <time>2020-10-08T12:04:12Z</time>
      </trkpt>
      <trkpt lat="46.20373" lon="6.24595">
        <ele>490.34</ele>
        <time>2020-10-08T12:04:22Z</time>
      </trkpt>
      <trkpt lat="46.20345" lon="6.24675">
        <ele>488.57</ele>
        <time>2020-10-08T12:04:32Z</time>
      </trkpt>
      <trkpt lat="46.20323" lon="6.24743">
        <ele>488.57</ele>
        <time>2020-10-08T12:05:09Z</time>
      </trkpt>
      <trkpt lat="46.20303" lon="6.24823">
        <ele>488.57</ele>
        <time>2020-10-08T12:05:24Z</time>
      </trkpt>
      <trkpt lat="46.20277" lon="6.24901">
        <ele>488.57</ele>
        <time>2020-10-08T12:05:41Z</time>
      </trkpt>
      <trkpt lat="46.20284" lon="6.24985">
        <ele>488.57</ele>
        <time>2020-10-08T12:05:59Z</time>
      </trkpt>
      <trkpt lat="46.20281" lon="6.25066">
        <ele>488.57</ele>
        <time>2020-10-08T12:06:16Z</time>
      </trkpt>
      <trkpt lat="46.20277" lon="6.25181">
        <ele>494.64</ele>
        <time>2020-10-08T12:06:39Z</time>
      </trkpt>
      <trkpt lat="46.20313" lon="6.2523">
        <ele>495.87</ele>
        <time>2020-10-08T12:06:52Z</time>
      </trkpt>
      <trkpt lat="46.20369" lon="6.25254">
        <ele>494.93</ele>
        <time>2020-10-08T12:07:05Z</time>
      </trkpt>
      <trkpt lat="46.2041" lon="6.25307">
        <ele>492.9</ele>
        <time>2020-10-08T12:07:34Z</time>
      </trkpt>
      <trkpt lat="46.20472" lon="6.25329">
        <ele>493.94</ele>
        <time>2020-10-08T12:07:50Z</time>
      </trkpt>
      <trkpt lat="46.20525" lon="6.25383">
        <ele>493.67</ele>
        <time>2020-10-08T12:08:08Z</time>
      </trkpt>
      <trkpt lat="46.20592" lon="6.25399">
        <ele>494</ele>
        <time>2020-10-08T12:08:21Z</time>
      </trkpt>
      <trkpt lat="46.20643" lon="6.25451">
        <ele>494.06</ele>
        <time>2020-10-08T12:08:35Z</time>
      </trkpt>
      <trkpt lat="46.20689" lon="6.25496">
        <ele>494.51</ele>
        <time>2020-10-08T12:08:52Z</time>
      </trkpt>
      <trkpt lat="46.20735" lon="6.25553">
        <ele>494.25</ele>
        <time>2020-10-08T12:09:10Z</time>
      </trkpt>
      <trkpt lat="46.20775" lon="6.25641">
        <ele>494.14</ele>
        <time>2020-10-08T12:09:25Z</time>
      </trkpt>
      <trkpt lat="46.20805" lon="6.25714">
        <ele>494.72</ele>
        <time>2020-10-08T12:09:39Z</time>
      </trkpt>
      <trkpt lat="46.20841" lon="6.25793">
        <ele>495</ele>
        <time>2020-10-08T12:10:01Z</time>
      </trkpt>
      <trkpt lat="46.20873" lon="6.25876">
        <ele>495.55</ele>
        <time>2020-10-08T12:10:14Z</time>
      </trkpt>
      <trkpt lat="46.2089" lon="6.25968">
        <ele>495.73</ele>
        <time>2020-10-08T12:10:29Z</time>
      </trkpt>
      <trkpt lat="46.20896" lon="6.2606">
        <ele>496.7</ele>
        <time>2020-10-08T12:10:43Z</time>
      </trkpt>
      <trkpt lat="46.20892" lon="6.26148">
        <ele>497.9</ele>
        <time>2020-10-08T12:11:00Z</time>
      </trkpt>
      <trkpt lat="46.20898" lon="6.26223">
        <ele>498.52</ele>
        <time>2020-10-08T12:11:20Z</time>
      </trkpt>
      <trkpt lat="46.20953" lon="6.26232">
        <ele>500.25</ele>
        <time>2020-10-08T12:11:37Z</time>
      </trkpt>
      <trkpt lat="46.20976" lon="6.2631">
        <ele>504.48</ele>
        <time>2020-10-08T12:11:59Z</time>
      </trkpt>
      <trkpt lat="46.21012" lon="6.2639">
        <ele>469.4</ele>
        <time>2020-10-08T12:12:24Z</time>
      </trkpt>
      <trkpt lat="46.21057" lon="6.26367">
        <ele>472</ele>
      </trkpt>
      <trkpt lat="46.21084" lon="6.2641">
        <ele>473</ele>
        <time>2020-10-08T12:12:56Z</time>
      </trkpt>
      <trkpt lat="46.21052" lon="6.26461">
        <ele>471.4</ele>
        <time>2020-10-08T12:13:17Z</time>
      </trkpt>
      <trkpt lat="46.21063" lon="6.26512">
        <ele>520.33</ele>
        <time>2020-10-08T12:13:31Z</time>
      </trkpt>
      <trkpt lat="46.21103" lon="6.26595">
        <ele>517.17</ele>
        <time>2020-10-08T12:13:41Z</time>
      </trkpt>
      <trkpt lat="46.21156" lon="6.26652">
        <ele>517.17</ele>
        <time>2020-10-08T12:13:50Z</time>
      </trkpt>
      <trkpt lat="46.21208" lon="6.26704">
        <ele>517.17</ele>
        <time>2020-10-08T12:14:04Z</time>
      </trkpt>
      <trkpt lat="46.21244" lon="6.26778">
        <ele>517.17</ele>
        <time>2020-10-08T12:14:22Z</time>
      </trkpt>
      <trkpt lat="46.2124" lon="6.26848">
        <ele>513.59</ele>
        <time>2020-10-08T12:15:18Z</time>
      </trkpt>
      <trkpt lat="46.21218" lon="6.26924">
        <ele>512.68</ele>
        <time>2020-10-08T12:15:28Z</time>
      </trkpt>
      <trkpt lat="46.21208" lon="6.27014">
        <ele>508.78</ele>
        <time>2020-10-08T12:15:39Z</time>
      </trkpt>
      <trkpt lat="46.2122" lon="6.27087">
        <ele>507.31</ele>
        <time>2020-10-08T12:15:59Z</time>
      </trkpt>
      <trkpt lat="46.21266" lon="6.27131">
        <ele>512.96</ele>
        <time>2020-10-08T12:16:26Z</time>
      </trkpt>
      <trkpt lat="46.21294" lon="6.27181">
        <ele>519.4</ele>
        <time>2020-10-08T12:16:53Z</time>
      </trkpt>
      <trkpt lat="46.21324" lon="6.27232">
        <ele>520.87</ele>
        <time>2020-10-08T12:22:18Z</time>
      </trkpt>
      <trkpt lat="46.21352" lon="6.27305">
        <ele>520.87</ele>
        <time>2020-10-08T12:22:43Z</time>
      </trkpt>
      <trkpt lat="46.21354" lon="6.27385">
        <ele>533.93</ele>
        <time>2020-10-08T12:23:08Z</time>
      </trkpt>
      <trkpt lat="46.2136" lon="6.27468">
        <ele>536.3</ele>
        <time>2020-10-08T12:23:28Z</time>
      </trkpt>
      <trkpt lat="46.21362" lon="6.27547">
        <ele>537.45</ele>
        <time>2020-10-08T12:23:49Z</time>
      </trkpt>
      <trkpt lat="46.21367" lon="6.27632">
        <ele>538.27</ele>
        <time>2020-10-08T12:24:07Z</time>
      </trkpt>
      <trkpt lat="46.21318" lon="6.27617">
        <ele>539.8</ele>
        <time>2020-10-08T12:24:25Z</time>
      </trkpt>
      <trkpt lat="46.2126" lon="6.27587">
        <ele>539.88</ele>
        <time>2020-10-08T12:24:39Z</time>
      </trkpt>
      <trkpt lat="46.21204" lon="6.27557">
        <ele>539.06</ele>
        <time>2020-10-08T12:24:53Z</time>
      </trkpt>
      <trkpt lat="46.21233" lon="6.27669">
        <ele>536.42</ele>
        <time>2020-10-08T12:25:10Z</time>
      </trkpt>
      <trkpt lat="46.21259" lon="6.2775">
        <ele>532.29</ele>
        <time>2020-10-08T12:25:38Z</time>
      </trkpt>
      <trkpt lat="46.21275" lon="6.27835">
        <ele>525.98</ele>
        <time>2020-10-08T12:25:52Z</time>
      </trkpt>
      <trkpt lat="46.21264" lon="6.27932">
        <ele>517.49</ele>
        <time>2020-10-08T12:26:31Z</time>
      </trkpt>
      <trkpt lat="46.21278" lon="6.28016">
        <ele>515.47</ele>
        <time>2020-10-08T12:26:44Z</time>
      </trkpt>
      <trkpt lat="46.21317" lon="6.28077">
        <ele>515.32</ele>
        <time>2020-10-08T12:27:02Z</time>
      </trkpt>
      <trkpt lat="46.21328" lon="6.28146">
        <ele>515.95</ele>
        <time>2020-10-08T12:27:23Z</time>
      </trkpt>
      <trkpt lat="46.21382" lon="6.2819">
        <ele>515.76</ele>
        <time>2020-10-08T12:27:37Z</time>
      </trkpt>
      <trkpt lat="46.21429" lon="6.28227">
        <ele>517.92</ele>
        <time>2020-10-08T12:27:57Z</time>
      </trkpt>
      <trkpt lat="46.21428" lon="6.28312">
        <ele>518.32</ele>
        <time>2020-10-08T12:28:16Z</time>
      </trkpt>
      <trkpt lat="46.21458" lon="6.28388">
        <ele>517.74</ele>
        <time>2020-10-08T12:28:31Z</time>
      </trkpt>
      <trkpt lat="46.21472" lon="6.28475">
        <ele>518.14</ele>
        <time>2020-10-08T12:28:43Z</time>
      </trkpt>
      <trkpt lat="46.21485" lon="6.28557">
        <ele>518.82</ele>
        <time>2020-10-08T12:28:58Z</time>
      </trkpt>
      <trkpt lat="46.21505" lon="6.28642">
        <ele>519.48</ele>
        <time>2020-10-08T12:29:16Z</time>
      </trkpt>
      <trkpt lat="46.21533" lon="6.28722">
        <ele>520.25</ele>
        <time>2020-10-08T12:29:30Z</time>
      </trkpt>
      <trkpt lat="46.21566" lon="6.28799">
        <ele>521.02</ele>
        <time>2020-10-08T12:29:44Z</time>
      </trkpt>
      <trkpt lat="46.21601" lon="6.28867">
        <ele>521.68</ele>
        <time>2020-10-08T12:29:56Z</time>
      </trkpt>
      <trkpt lat="46.21636" lon="6.28938">
        <ele>522.37</ele>
        <time>2020-10-08T12:30:09Z</time>
      </trkpt>
      <trkpt lat="46.21673" lon="6.2901">
        <ele>522.98</ele>
        <time>2020-10-08T12:30:21Z</time>
      </trkpt>
      <trkpt lat="46.21709" lon="6.29081">
        <ele>523.5</ele>
        <time>2020-10-08T12:30:36Z</time>
      </trkpt>
      <trkpt lat="46.21745" lon="6.29157">
        <ele>524.43</ele>
        <time>2020-10-08T12:30:49Z</time>
      </trkpt>
      <trkpt lat="46.21759" lon="6.29268">
        <ele>525.7</ele>
        <time>2020-10-08T12:31:09Z</time>
      </trkpt>
      <trkpt lat="46.21752" lon="6.29355">
        <ele>526.9</ele>
        <time>2020-10-08T12:31:21Z</time>
      </trkpt>
      <trkpt lat="46.21792" lon="6.2943">
        <ele>527.85</ele>
        <time>2020-10-08T12:31:33Z</time>
      </trkpt>
      <trkpt lat="46.21837" lon="6.29493">
        <ele>528.07</ele>
        <time>2020-10-08T12:31:48Z</time>
      </trkpt>
      <trkpt lat="46.21854" lon="6.29567">
        <ele>528.65</ele>
        <time>2020-10-08T12:32:06Z</time>
      </trkpt>
      <trkpt lat="46.21896" lon="6.29631">
        <ele>529.41</ele>
        <time>2020-10-08T12:32:18Z</time>
      </trkpt>
      <trkpt lat="46.21928" lon="6.29701">
        <ele>530.04</ele>
        <time>2020-10-08T12:32:36Z</time>
      </trkpt>
      <trkpt lat="46.21973" lon="6.29764">
        <ele>530.67</ele>
        <time>2020-10-08T12:32:52Z</time>
      </trkpt>
      <trkpt lat="46.22023" lon="6.29806">
        <ele>531.45</ele>
        <time>2020-10-08T12:33:08Z</time>
      </trkpt>
      <trkpt lat="46.22086" lon="6.2983">
        <ele>532.26</ele>
        <time>2020-10-08T12:33:24Z</time>
      </trkpt>
      <trkpt lat="46.22137" lon="6.2988">
        <ele>533.2</ele>
        <time>2020-10-08T12:33:41Z</time>
      </trkpt>
      <trkpt lat="46.22189" lon="6.29927">
        <ele>533.95</ele>
        <time>2020-10-08T12:33:55Z</time>
      </trkpt>
      <trkpt lat="46.22243" lon="6.29968">
        <ele>535.48</ele>
        <time>2020-10-08T12:34:13Z</time>
      </trkpt>
      <trkpt lat="46.22295" lon="6.30005">
        <ele>537.57</ele>
        <time>2020-10-08T12:34:31Z</time>
      </trkpt>
      <trkpt lat="46.22344" lon="6.30056">
        <ele>539.48</ele>
        <time>2020-10-08T12:34:50Z</time>
      </trkpt>
      <trkpt lat="46.2239" lon="6.30104">
        <ele>541.34</ele>
        <time>2020-10-08T12:35:06Z</time>
      </trkpt>
      <trkpt lat="46.22443" lon="6.30139">
        <ele>543.23</ele>
        <time>2020-10-08T12:35:25Z</time>
      </trkpt>
      <trkpt lat="46.22498" lon="6.30171">
        <ele>544.89</ele>
        <time>2020-10-08T12:35:44Z</time>
      </trkpt>
      <trkpt lat="46.2256" lon="6.30216">
        <ele>544.96</ele>
        <time>2020-10-08T12:35:57Z</time>
      </trkpt>
      <trkpt lat="46.22615" lon="6.30233">
        <ele>543.85</ele>
        <time>2020-10-08T12:36:09Z</time>
      </trkpt>
      <trkpt lat="46.22669" lon="6.3027">
        <ele>543.88</ele>
        <time>2020-10-08T12:36:24Z</time>
      </trkpt>
      <trkpt lat="46.22741" lon="6.30319">
        <ele>544.35</ele>
        <time>2020-10-08T12:36:42Z</time>
      </trkpt>
      <trkpt lat="46.22798" lon="6.30361">
        <ele>544.6</ele>
        <time>2020-10-08T12:36:54Z</time>
      </trkpt>
      <trkpt lat="46.22856" lon="6.30396">
        <ele>544.6</ele>
        <time>2020-10-08T12:37:08Z</time>
      </trkpt>
      <trkpt lat="46.22911" lon="6.30427">
        <ele>544.6</ele>
        <time>2020-10-08T12:37:21Z</time>
      </trkpt>
      <trkpt lat="46.22967" lon="6.30459">
        <ele>544.6</ele>
        <time>2020-10-08T12:37:35Z</time>
      </trkpt>
      <trkpt lat="46.2302" lon="6.30489">
        <ele>544.6</ele>
        <time>2020-10-08T12:37:49Z</time>
      </trkpt>
      <trkpt lat="46.23074" lon="6.30524">
        <ele>548.03</ele>
        <time>2020-10-08T12:38:03Z</time>
      </trkpt>
      <trkpt lat="46.23127" lon="6.3056">
        <ele>548.81</ele>
        <time>2020-10-08T12:38:16Z</time>
      </trkpt>
      <trkpt lat="46.23184" lon="6.30598">
        <ele>549.75</ele>
        <time>2020-10-08T12:38:32Z</time>
      </trkpt>
      <trkpt lat="46.23242" lon="6.30642">
        <ele>551.26</ele>
        <time>2020-10-08T12:38:49Z</time>
      </trkpt>
      <trkpt lat="46.23295" lon="6.30686">
        <ele>552.66</ele>
        <time>2020-10-08T12:39:03Z</time>
      </trkpt>
      <trkpt lat="46.23315" lon="6.30754">
        <ele>554.48</ele>
        <time>2020-10-08T12:39:27Z</time>
      </trkpt>
      <trkpt lat="46.23346" lon="6.30683">
        <ele>557.44</ele>
        <time>2020-10-08T12:40:00Z</time>
      </trkpt>
      <trkpt lat="46.23393" lon="6.30629">
        <ele>568.96</ele>
        <time>2020-10-08T12:40:34Z</time>
      </trkpt>
      <trkpt lat="46.23447" lon="6.30652">
        <ele>570.94</ele>
        <time>2020-10-08T12:40:53Z</time>
      </trkpt>
      <trkpt lat="46.23502" lon="6.30704">
        <ele>569.83</ele>
        <time>2020-10-08T12:41:05Z</time>
      </trkpt>
      <trkpt lat="46.23557" lon="6.30738">
        <ele>568.39</ele>
        <time>2020-10-08T12:41:17Z</time>
      </trkpt>
      <trkpt lat="46.23615" lon="6.3076">
        <ele>568.11</ele>
        <time>2020-10-08T12:41:32Z</time>
      </trkpt>
      <trkpt lat="46.23674" lon="6.30779">
        <ele>568.31</ele>
        <time>2020-10-08T12:41:48Z</time>
      </trkpt>
      <trkpt lat="46.23731" lon="6.30814">
        <ele>569.08</ele>
        <time>2020-10-08T12:42:00Z</time>
      </trkpt>
      <trkpt lat="46.23791" lon="6.30831">
        <ele>569.24</ele>
        <time>2020-10-08T12:42:16Z</time>
      </trkpt>
      <trkpt lat="46.23846" lon="6.30874">
        <ele>569.24</ele>
        <time>2020-10-08T12:42:28Z</time>
      </trkpt>
      <trkpt lat="46.23917" lon="6.30926">
        <ele>569.24</ele>
        <time>2020-10-08T12:42:45Z</time>
      </trkpt>
      <trkpt lat="46.23967" lon="6.30964">
        <ele>569.24</ele>
        <time>2020-10-08T12:43:01Z</time>
      </trkpt>
      <trkpt lat="46.24002" lon="6.3103">
        <ele>569.24</ele>
        <time>2020-10-08T12:43:14Z</time>
      </trkpt>
      <trkpt lat="46.24052" lon="6.31074">
        <ele>569.24</ele>
        <time>2020-10-08T12:43:27Z</time>
      </trkpt>
      <trkpt lat="46.24108" lon="6.3111">
        <ele>569.24</ele>
        <time>2020-10-08T12:43:46Z</time>
      </trkpt>
      <trkpt lat="46.24162" lon="6.31147">
        <ele>569.24</ele>
        <time>2020-10-08T12:44:05Z</time>
      </trkpt>
      <trkpt lat="46.24212" lon="6.31157">
        <ele>562.13</ele>
        <time>2020-10-08T12:44:20Z</time>
      </trkpt>
      <trkpt lat="46.2423" lon="6.31072">
        <ele>562.93</ele>
        <time>2020-10-08T12:44:34Z</time>
      </trkpt>
      <trkpt lat="46.2426" lon="6.30996">
        <ele>565.41</ele>
        <time>2020-10-08T12:44:48Z</time>
      </trkpt>
      <trkpt lat="46.24307" lon="6.30978">
        <ele>566.28</ele>
        <time>2020-10-08T12:45:06Z</time>
      </trkpt>
      <trkpt lat="46.24369" lon="6.31018">
        <ele>565.13</ele>
        <time>2020-10-08T12:45:17Z</time>
      </trkpt>
      <trkpt lat="46.24418" lon="6.31026">
        <ele>563.5</ele>
        <time>2020-10-08T12:45:33Z</time>
      </trkpt>
      <trkpt lat="46.24481" lon="6.31014">
        <ele>565.43</ele>
        <time>2020-10-08T12:45:45Z</time>
      </trkpt>
      <trkpt lat="46.24537" lon="6.30997">
        <ele>566.61</ele>
        <time>2020-10-08T12:45:59Z</time>
      </trkpt>
      <trkpt lat="46.24589" lon="6.30939">
        <ele>567.98</ele>
        <time>2020-10-08T12:46:11Z</time>
      </trkpt>
      <trkpt lat="46.2465" lon="6.30925">
        <ele>568.57</ele>
        <time>2020-10-08T12:46:23Z</time>
      </trkpt>
      <trkpt lat="46.24714" lon="6.30901">
        <ele>568.74</ele>
        <time>2020-10-08T12:46:36Z</time>
      </trkpt>
      <trkpt lat="46.24783" lon="6.30884">
        <ele>568.91</ele>
        <time>2020-10-08T12:46:47Z</time>
      </trkpt>
      <trkpt lat="46.24843" lon="6.30911">
        <ele>568.44</ele>
        <time>2020-10-08T12:46:59Z</time>
      </trkpt>
      <trkpt lat="46.24901" lon="6.30924">
        <ele>568.08</ele>
        <time>2020-10-08T12:47:08Z</time>
      </trkpt>
      <trkpt lat="46.24965" lon="6.3094">
        <ele>567.43</ele>
        <time>2020-10-08T12:47:20Z</time>
      </trkpt>
      <trkpt lat="46.25043" lon="6.30936">
        <ele>567.43</ele>
        <time>2020-10-08T12:47:38Z</time>
      </trkpt>
      <trkpt lat="46.251" lon="6.30977">
        <ele>567.43</ele>
        <time>2020-10-08T12:47:49Z</time>
      </trkpt>
      <trkpt lat="46.25155" lon="6.30999">
        <ele>567.43</ele>
        <time>2020-10-08T12:47:58Z</time>
      </trkpt>
      <trkpt lat="46.2521" lon="6.31013">
        <ele>567.43</ele>
        <time>2020-10-08T12:48:07Z</time>
      </trkpt>
      <trkpt lat="46.25267" lon="6.31043">
        <ele>567.43</ele>
        <time>2020-10-08T12:48:19Z</time>
      </trkpt>
      <trkpt lat="46.25324" lon="6.31076">
        <ele>567.43</ele>
        <time>2020-10-08T12:48:28Z</time>
      </trkpt>
      <trkpt lat="46.25358" lon="6.31148">
        <ele>567.43</ele>
        <time>2020-10-08T12:48:38Z</time>
      </trkpt>
      <trkpt lat="46.25384" lon="6.31197">
        <ele>567.43</ele>
        <time>2020-10-08T12:49:00Z</time>
      </trkpt>
      <trkpt lat="46.25419" lon="6.3111">
        <ele>567.43</ele>
        <time>2020-10-08T12:49:10Z</time>
      </trkpt>
      <trkpt lat="46.25458" lon="6.31014">
        <ele>562.91</ele>
        <time>2020-10-08T12:49:19Z</time>
      </trkpt>
      <trkpt lat="46.25499" lon="6.30918">
        <ele>559.29</ele>
        <time>2020-10-08T12:49:28Z</time>
      </trkpt>
      <trkpt lat="46.25526" lon="6.30833">
        <ele>556.02</ele>
        <time>2020-10-08T12:49:38Z</time>
      </trkpt>
      <trkpt lat="46.25539" lon="6.30743">
        <ele>552.81</ele>
        <time>2020-10-08T12:49:50Z</time>
      </trkpt>
      <trkpt lat="46.25558" lon="6.30653">
        <ele>550.11</ele>
        <time>2020-10-08T12:50:00Z</time>
      </trkpt>
      <trkpt lat="46.25562" lon="6.30555">
        <ele>547.34</ele>
        <time>2020-10-08T12:50:09Z</time>
      </trkpt>
      <trkpt lat="46.25591" lon="6.3046">
        <ele>544.06</ele>
        <time>2020-10-08T12:50:17Z</time>
      </trkpt>
      <trkpt lat="46.25634" lon="6.3039">
        <ele>542.02</ele>
        <time>2020-10-08T12:50:29Z</time>
      </trkpt>
      <trkpt lat="46.25659" lon="6.30314">
        <ele>540.71</ele>
        <time>2020-10-08T12:51:40Z</time>
      </trkpt>
      <trkpt lat="46.25683" lon="6.30233">
        <ele>539.72</ele>
        <time>2020-10-08T12:51:54Z</time>
      </trkpt>
      <trkpt lat="46.25707" lon="6.3015">
        <ele>538.47</ele>
        <time>2020-10-08T12:52:06Z</time>
      </trkpt>
      <trkpt lat="46.25731" lon="6.30069">
        <ele>536.99</ele>
        <time>2020-10-08T12:52:18Z</time>
      </trkpt>
      <trkpt lat="46.25752" lon="6.29993">
        <ele>535.23</ele>
        <time>2020-10-08T12:52:30Z</time>
      </trkpt>
      <trkpt lat="46.25784" lon="6.29882">
        <ele>532.53</ele>
        <time>2020-10-08T12:52:46Z</time>
      </trkpt>
      <trkpt lat="46.25806" lon="6.29788">
        <ele>529.62</ele>
        <time>2020-10-08T12:52:58Z</time>
      </trkpt>
      <trkpt lat="46.25756" lon="6.29748">
        <ele>528.22</ele>
        <time>2020-10-08T12:53:13Z</time>
      </trkpt>
      <trkpt lat="46.25702" lon="6.29715">
        <ele>529.45</ele>
        <time>2020-10-08T12:53:25Z</time>
      </trkpt>
      <trkpt lat="46.25643" lon="6.29677">
        <ele>529.8</ele>
        <time>2020-10-08T12:53:39Z</time>
      </trkpt>
      <trkpt lat="46.25593" lon="6.2963">
        <ele>528.88</ele>
        <time>2020-10-08T12:53:55Z</time>
      </trkpt>
      <trkpt lat="46.256" lon="6.29544">
        <ele>524.45</ele>
        <time>2020-10-08T12:54:35Z</time>
      </trkpt>
      <trkpt lat="46.25645" lon="6.29476">
        <ele>524.02</ele>
        <time>2020-10-08T12:55:02Z</time>
      </trkpt>
      <trkpt lat="46.25707" lon="6.29467">
        <ele>522.7</ele>
        <time>2020-10-08T12:55:33Z</time>
      </trkpt>
      <trkpt lat="46.25767" lon="6.2942">
        <ele>520.84</ele>
        <time>2020-10-08T12:56:08Z</time>
      </trkpt>
      <trkpt lat="46.25791" lon="6.29357">
        <ele>520.96</ele>
        <time>2020-10-08T12:56:54Z</time>
      </trkpt>
      <trkpt lat="46.25776" lon="6.29286">
        <ele>521.63</ele>
        <time>2020-10-08T12:57:27Z</time>
      </trkpt>
      <trkpt lat="46.25832" lon="6.29234">
        <ele>521.7</ele>
        <time>2020-10-08T12:57:40Z</time>
      </trkpt>
      <trkpt lat="46.25862" lon="6.29142">
        <ele>521.86</ele>
        <time>2020-10-08T12:57:54Z</time>
      </trkpt>
      <trkpt lat="46.25893" lon="6.29064">
        <ele>521.05</ele>
        <time>2020-10-08T12:58:07Z</time>
      </trkpt>
      <trkpt lat="46.25948" lon="6.28981">
        <ele>518.36</ele>
        <time>2020-10-08T12:58:52Z</time>
      </trkpt>
      <trkpt lat="46.25967" lon="6.28898">
        <ele>518.77</ele>
        <time>2020-10-08T12:59:26Z</time>
      </trkpt>
      <trkpt lat="46.25987" lon="6.28831">
        <ele>518.77</ele>
        <time>2020-10-08T12:59:47Z</time>
      </trkpt>
      <trkpt lat="46.25943" lon="6.28755">
        <ele>518.77</ele>
        <time>2020-10-08T13:00:01Z</time>
      </trkpt>
      <trkpt lat="46.25903" lon="6.28687">
        <ele>518.77</ele>
        <time>2020-10-08T13:00:19Z</time>
      </trkpt>
      <trkpt lat="46.25851" lon="6.28637">
        <ele>518.77</ele>
        <time>2020-10-08T13:00:31Z</time>
      </trkpt>
      <trkpt lat="46.25821" lon="6.28512">
        <ele>518.77</ele>
        <time>2020-10-08T13:00:52Z</time>
      </trkpt>
      <trkpt lat="46.2578" lon="6.28444">
        <ele>518.77</ele>
        <time>2020-10-08T13:01:06Z</time>
      </trkpt>
      <trkpt lat="46.25744" lon="6.2836">
        <ele>518.77</ele>
        <time>2020-10-08T13:01:19Z</time>
      </trkpt>
      <trkpt lat="46.25735" lon="6.28252">
        <ele>520.74</ele>
        <time>2020-10-08T13:01:34Z</time>
      </trkpt>
      <trkpt lat="46.25725" lon="6.28172">
        <ele>519.62</ele>
        <time>2020-10-08T13:01:55Z</time>
      </trkpt>
      <trkpt lat="46.25755" lon="6.2809">
        <ele>518.69</ele>
        <time>2020-10-08T13:02:08Z</time>
      </trkpt>
      <trkpt lat="46.25791" lon="6.28002">
        <ele>517.7</ele>
        <time>2020-10-08T13:02:22Z</time>
      </trkpt>
      <trkpt lat="46.25845" lon="6.27926">
        <ele>516.22</ele>
        <time>2020-10-08T13:02:41Z</time>
      </trkpt>
      <trkpt lat="46.25895" lon="6.27841">
        <ele>515.06</ele>
        <time>2020-10-08T13:02:57Z</time>
      </trkpt>
      <trkpt lat="46.25933" lon="6.27759">
        <ele>514.27</ele>
        <time>2020-10-08T13:03:10Z</time>
      </trkpt>
      <trkpt lat="46.25967" lon="6.27682">
        <ele>513.82</ele>
        <time>2020-10-08T13:03:21Z</time>
      </trkpt>
      <trkpt lat="46.26001" lon="6.27605">
        <ele>512.62</ele>
        <time>2020-10-08T13:03:34Z</time>
      </trkpt>
      <trkpt lat="46.25985" lon="6.27514">
        <ele>511.19</ele>
        <time>2020-10-08T13:03:47Z</time>
      </trkpt>
      <trkpt lat="46.25982" lon="6.27409">
        <ele>509.78</ele>
        <time>2020-10-08T13:04:01Z</time>
      </trkpt>
      <trkpt lat="46.2599" lon="6.27312">
        <ele>508.31</ele>
        <time>2020-10-08T13:04:14Z</time>
      </trkpt>
      <trkpt lat="46.25955" lon="6.2724">
        <ele>507.1</ele>
        <time>2020-10-08T13:04:26Z</time>
      </trkpt>
      <trkpt lat="46.25903" lon="6.27199">
        <ele>507</ele>
        <time>2020-10-08T13:04:36Z</time>
      </trkpt>
      <trkpt lat="46.25856" lon="6.2715">
        <ele>506.26</ele>
        <time>2020-10-08T13:04:52Z</time>
      </trkpt>
      <trkpt lat="46.25879" lon="6.27073">
        <ele>505.3</ele>
        <time>2020-10-08T13:05:05Z</time>
      </trkpt>
      <trkpt lat="46.25908" lon="6.26992">
        <ele>504.39</ele>
        <time>2020-10-08T13:05:17Z</time>
      </trkpt>
      <trkpt lat="46.25922" lon="6.26909">
        <ele>504</ele>
        <time>2020-10-08T13:05:33Z</time>
      </trkpt>
      <trkpt lat="46.25936" lon="6.26783">
        <ele>503.46</ele>
        <time>2020-10-08T13:05:49Z</time>
      </trkpt>
      <trkpt lat="46.25949" lon="6.2669">
        <ele>502.66</ele>
        <time>2020-10-08T13:06:01Z</time>
      </trkpt>
      <trkpt lat="46.25968" lon="6.26595">
        <ele>500.76</ele>
        <time>2020-10-08T13:06:13Z</time>
      </trkpt>
      <trkpt lat="46.25976" lon="6.26569">
        <ele>499.25</ele>
        <time>2020-10-08T13:07:07Z</time>
      </trkpt>
      <trkpt lat="46.25969" lon="6.26493">
        <ele>498.8</ele>
        <time>2020-10-08T13:07:22Z</time>
      </trkpt>
      <trkpt lat="46.26012" lon="6.26477">
        <ele>497.78</ele>
        <time>2020-10-08T13:07:38Z</time>
      </trkpt>
      <trkpt lat="46.2607" lon="6.26505">
        <ele>497.51</ele>
        <time>2020-10-08T13:07:48Z</time>
      </trkpt>
      <trkpt lat="46.26131" lon="6.26536">
        <ele>496.98</ele>
        <time>2020-10-08T13:08:00Z</time>
      </trkpt>
      <trkpt lat="46.26184" lon="6.2656">
        <ele>496.43</ele>
        <time>2020-10-08T13:08:09Z</time>
      </trkpt>
      <trkpt lat="46.26244" lon="6.2659">
        <ele>495.89</ele>
        <time>2020-10-08T13:08:21Z</time>
      </trkpt>
      <trkpt lat="46.26303" lon="6.26626">
        <ele>495.78</ele>
        <time>2020-10-08T13:08:32Z</time>
      </trkpt>
      <trkpt lat="46.2636" lon="6.26661">
        <ele>495.97</ele>
        <time>2020-10-08T13:08:45Z</time>
      </trkpt>
      <trkpt lat="46.26422" lon="6.26672">
        <ele>495.58</ele>
        <time>2020-10-08T13:08:58Z</time>
      </trkpt>
      <trkpt lat="46.26487" lon="6.26671">
        <ele>494.72</ele>
        <time>2020-10-08T13:09:09Z</time>
      </trkpt>
      <trkpt lat="46.26546" lon="6.26699">
        <ele>493.84</ele>
        <time>2020-10-08T13:09:21Z</time>
      </trkpt>
      <trkpt lat="46.26607" lon="6.26724">
        <ele>487.78</ele>
        <time>2020-10-08T13:09:38Z</time>
      </trkpt>
      <trkpt lat="46.26592" lon="6.26634">
        <ele>486.19</ele>
        <time>2020-10-08T13:09:50Z</time>
      </trkpt>
      <trkpt lat="46.26586" lon="6.26542">
        <ele>485.51</ele>
        <time>2020-10-08T13:10:01Z</time>
      </trkpt>
      <trkpt lat="46.26581" lon="6.26456">
        <ele>484.9</ele>
        <time>2020-10-08T13:10:11Z</time>
      </trkpt>
      <trkpt lat="46.26573" lon="6.26373">
        <ele>484.14</ele>
        <time>2020-10-08T13:10:25Z</time>
      </trkpt>
      <trkpt lat="46.2656" lon="6.26298">
        <ele>483.81</ele>
        <time>2020-10-08T13:11:09Z</time>
      </trkpt>
      <trkpt lat="46.2655" lon="6.26211">
        <ele>484.57</ele>
        <time>2020-10-08T13:11:22Z</time>
      </trkpt>
      <trkpt lat="46.26574" lon="6.26097">
        <ele>485.14</ele>
        <time>2020-10-08T13:11:36Z</time>
      </trkpt>
      <trkpt lat="46.26593" lon="6.26012">
        <ele>483.67</ele>
        <time>2020-10-08T13:11:49Z</time>
      </trkpt>
      <trkpt lat="46.2658" lon="6.25926">
        <ele>483.55</ele>
        <time>2020-10-08T13:12:02Z</time>
      </trkpt>
      <trkpt lat="46.26572" lon="6.25899">
        <ele>435.4</ele>
        <time>2020-10-08T13:12:15Z</time>
      </trkpt>
      <trkpt lat="46.26604" lon="6.25867">
        <ele>432.7</ele>
        <time>2020-10-08T13:12:30Z</time>
      </trkpt>
      <trkpt lat="46.26645" lon="6.25834">
        <ele>430.8</ele>
        <time>2020-10-08T13:12:43Z</time>
      </trkpt>
      <trkpt lat="46.26654" lon="6.25785">
        <ele>430.1</ele>
        <time>2020-10-08T13:12:55Z</time>
      </trkpt>
      <trkpt lat="46.26644" lon="6.25746">
        <ele>430</ele>
        <time>2020-10-08T13:13:09Z</time>
      </trkpt>
      <trkpt lat="46.26647" lon="6.25715">
        <ele>430.2</ele>
        <time>2020-10-08T13:13:22Z</time>
      </trkpt>
      <trkpt lat="46.26683" lon="6.25715">
        <ele>430</ele>
      </trkpt>
      <trkpt lat="46.26694" lon="6.25721">
        <ele>430</ele>
      </trkpt>
      <trkpt lat="46.26699" lon="6.25739">
        <ele>430</ele>
      </trkpt>
      <trkpt lat="46.26821" lon="6.25794">
        <ele>430.6</ele>
      </trkpt>
      <trkpt lat="46.26834" lon="6.25751">
        <ele>430</ele>
      </trkpt>
      <trkpt lat="46.26843" lon="6.25748">
        <ele>430.6</ele>
        <time>2020-10-08T13:13:34Z</time>
      </trkpt>
    </trkseg>
  </trk>
</gpx>